<?xml version="1.0" encoding="UTF-8" standalone="no" ?>
<gpx xmlns="http://www.topografix.com/GPX/1/1" xmlns:xsi="http://www.w3.org/2001/XMLSchema-instance" xsi:schemaLocation="http://www.topografix.com/GPX/1/1 http://www.topografix.com/GPX/1/1/gpx.xsd" version="1.1" creator="VisuGPX - https://www.visugpx.com">
  <metadata>
    <name>leviste depuis hautacam</name>
    <desc><![CDATA[leviste depuis hautacam
leviste depuis hautacam]]></desc>
  </metadata>
  <trk>
    <name><![CDATA[sr-pic de leviste 170217]]></name>
    <trkseg>
      <trkpt lat="42.97191" lon="-0.00294">
        <ele>1599.290527</ele>
        <time>2017-02-17T08:52:29Z</time>
      </trkpt>
      <trkpt lat="42.97186" lon="-0.00297">
        <ele>1610.345459</ele>
        <time>2017-02-17T08:52:48Z</time>
      </trkpt>
      <trkpt lat="42.97184" lon="-0.00299">
        <ele>1611.306885</ele>
        <time>2017-02-17T08:52:59Z</time>
      </trkpt>
      <trkpt lat="42.97183" lon="-0.003">
        <ele>1611.306885</ele>
        <time>2017-02-17T08:53:05Z</time>
      </trkpt>
      <trkpt lat="42.97172" lon="-0.00305">
        <ele>1611.787598</ele>
        <time>2017-02-17T08:53:12Z</time>
      </trkpt>
      <trkpt lat="42.97151" lon="-0.00312">
        <ele>1615.633057</ele>
        <time>2017-02-17T08:53:26Z</time>
      </trkpt>
      <trkpt lat="42.97143" lon="-0.00315">
        <ele>1614.190918</ele>
        <time>2017-02-17T08:53:42Z</time>
      </trkpt>
      <trkpt lat="42.97145" lon="-0.00314">
        <ele>1613.710205</ele>
        <time>2017-02-17T08:54:16Z</time>
      </trkpt>
      <trkpt lat="42.97146" lon="-0.00315">
        <ele>1612.749023</ele>
        <time>2017-02-17T08:54:39Z</time>
      </trkpt>
      <trkpt lat="42.97147" lon="-0.00315">
        <ele>1611.787598</ele>
        <time>2017-02-17T08:55:50Z</time>
      </trkpt>
      <trkpt lat="42.97146" lon="-0.00315">
        <ele>1612.268311</ele>
        <time>2017-02-17T08:56:26Z</time>
      </trkpt>
      <trkpt lat="42.97144" lon="-0.00318">
        <ele>1612.749023</ele>
        <time>2017-02-17T08:57:13Z</time>
      </trkpt>
      <trkpt lat="42.97144" lon="-0.0032">
        <ele>1611.787598</ele>
        <time>2017-02-17T08:57:19Z</time>
      </trkpt>
      <trkpt lat="42.97143" lon="-0.0032">
        <ele>1611.787598</ele>
        <time>2017-02-17T08:57:21Z</time>
      </trkpt>
      <trkpt lat="42.97144" lon="-0.00311">
        <ele>1610.345459</ele>
        <time>2017-02-17T08:57:35Z</time>
      </trkpt>
      <trkpt lat="42.97145" lon="-0.0031">
        <ele>1609.384277</ele>
        <time>2017-02-17T08:57:54Z</time>
      </trkpt>
      <trkpt lat="42.97142" lon="-0.00304">
        <ele>1606.980957</ele>
        <time>2017-02-17T08:58:22Z</time>
      </trkpt>
      <trkpt lat="42.97125" lon="-0.00299">
        <ele>1601.693848</ele>
        <time>2017-02-17T08:58:40Z</time>
      </trkpt>
      <trkpt lat="42.97105" lon="-0.0029">
        <ele>1603.135742</ele>
        <time>2017-02-17T08:59:00Z</time>
      </trkpt>
      <trkpt lat="42.97089" lon="-0.00287">
        <ele>1602.174316</ele>
        <time>2017-02-17T08:59:18Z</time>
      </trkpt>
      <trkpt lat="42.97076" lon="-0.00286">
        <ele>1602.174316</ele>
        <time>2017-02-17T08:59:38Z</time>
      </trkpt>
      <trkpt lat="42.97065" lon="-0.0029">
        <ele>1604.577637</ele>
        <time>2017-02-17T08:59:56Z</time>
      </trkpt>
      <trkpt lat="42.97056" lon="-0.00306">
        <ele>1606.980957</ele>
        <time>2017-02-17T09:00:18Z</time>
      </trkpt>
      <trkpt lat="42.97044" lon="-0.00322">
        <ele>1608.422852</ele>
        <time>2017-02-17T09:00:43Z</time>
      </trkpt>
      <trkpt lat="42.97033" lon="-0.00338">
        <ele>1613.710205</ele>
        <time>2017-02-17T09:01:09Z</time>
      </trkpt>
      <trkpt lat="42.9703" lon="-0.00339">
        <ele>1613.710205</ele>
        <time>2017-02-17T09:01:14Z</time>
      </trkpt>
      <trkpt lat="42.97028" lon="-0.00345">
        <ele>1613.710205</ele>
        <time>2017-02-17T09:01:18Z</time>
      </trkpt>
      <trkpt lat="42.97024" lon="-0.00356">
        <ele>1614.190918</ele>
        <time>2017-02-17T09:01:31Z</time>
      </trkpt>
      <trkpt lat="42.97016" lon="-0.00374">
        <ele>1617.55542</ele>
        <time>2017-02-17T09:01:55Z</time>
      </trkpt>
      <trkpt lat="42.97004" lon="-0.00387">
        <ele>1620.439453</ele>
        <time>2017-02-17T09:02:22Z</time>
      </trkpt>
      <trkpt lat="42.96986" lon="-0.00403">
        <ele>1627.168701</ele>
        <time>2017-02-17T09:02:49Z</time>
      </trkpt>
      <trkpt lat="42.96974" lon="-0.00411">
        <ele>1629.572021</ele>
        <time>2017-02-17T09:03:07Z</time>
      </trkpt>
      <trkpt lat="42.9696" lon="-0.00417">
        <ele>1631.01416</ele>
        <time>2017-02-17T09:03:27Z</time>
      </trkpt>
      <trkpt lat="42.96943" lon="-0.00425">
        <ele>1636.781738</ele>
        <time>2017-02-17T09:03:49Z</time>
      </trkpt>
      <trkpt lat="42.96924" lon="-0.00436">
        <ele>1641.588379</ele>
        <time>2017-02-17T09:04:16Z</time>
      </trkpt>
      <trkpt lat="42.96905" lon="-0.00444">
        <ele>1648.79834</ele>
        <time>2017-02-17T09:04:41Z</time>
      </trkpt>
      <trkpt lat="42.96888" lon="-0.0045">
        <ele>1653.60498</ele>
        <time>2017-02-17T09:05:03Z</time>
      </trkpt>
      <trkpt lat="42.96873" lon="-0.00456">
        <ele>1654.566162</ele>
        <time>2017-02-17T09:05:22Z</time>
      </trkpt>
      <trkpt lat="42.96855" lon="-0.00466">
        <ele>1654.566162</ele>
        <time>2017-02-17T09:05:47Z</time>
      </trkpt>
      <trkpt lat="42.96838" lon="-0.00477">
        <ele>1655.527588</ele>
        <time>2017-02-17T09:06:10Z</time>
      </trkpt>
      <trkpt lat="42.96819" lon="-0.00494">
        <ele>1653.60498</ele>
        <time>2017-02-17T09:06:37Z</time>
      </trkpt>
      <trkpt lat="42.96817" lon="-0.00497">
        <ele>1653.60498</ele>
        <time>2017-02-17T09:06:42Z</time>
      </trkpt>
      <trkpt lat="42.96808" lon="-0.00514">
        <ele>1652.643555</ele>
        <time>2017-02-17T09:07:02Z</time>
      </trkpt>
      <trkpt lat="42.96793" lon="-0.00535">
        <ele>1656.008057</ele>
        <time>2017-02-17T09:07:28Z</time>
      </trkpt>
      <trkpt lat="42.96781" lon="-0.00529">
        <ele>1658.411377</ele>
        <time>2017-02-17T09:07:50Z</time>
      </trkpt>
      <trkpt lat="42.96786" lon="-0.00512">
        <ele>1659.372803</ele>
        <time>2017-02-17T09:08:11Z</time>
      </trkpt>
      <trkpt lat="42.96787" lon="-0.00505">
        <ele>1659.853271</ele>
        <time>2017-02-17T09:08:25Z</time>
      </trkpt>
      <trkpt lat="42.96789" lon="-0.00491">
        <ele>1661.776367</ele>
        <time>2017-02-17T09:08:38Z</time>
      </trkpt>
      <trkpt lat="42.96789" lon="-0.0049">
        <ele>1661.295654</ele>
        <time>2017-02-17T09:08:39Z</time>
      </trkpt>
      <trkpt lat="42.96788" lon="-0.00468">
        <ele>1660.334229</ele>
        <time>2017-02-17T09:08:59Z</time>
      </trkpt>
      <trkpt lat="42.96787" lon="-0.00449">
        <ele>1661.295654</ele>
        <time>2017-02-17T09:09:13Z</time>
      </trkpt>
      <trkpt lat="42.96793" lon="-0.00421">
        <ele>1664.179443</ele>
        <time>2017-02-17T09:09:36Z</time>
      </trkpt>
      <trkpt lat="42.96797" lon="-0.00409">
        <ele>1664.179443</ele>
        <time>2017-02-17T09:09:56Z</time>
      </trkpt>
      <trkpt lat="42.96804" lon="-0.00393">
        <ele>1665.140869</ele>
        <time>2017-02-17T09:10:11Z</time>
      </trkpt>
      <trkpt lat="42.96806" lon="-0.00383">
        <ele>1666.582764</ele>
        <time>2017-02-17T09:10:30Z</time>
      </trkpt>
      <trkpt lat="42.96811" lon="-0.00367">
        <ele>1668.505371</ele>
        <time>2017-02-17T09:10:57Z</time>
      </trkpt>
      <trkpt lat="42.96813" lon="-0.00365">
        <ele>1668.505371</ele>
        <time>2017-02-17T09:11:00Z</time>
      </trkpt>
      <trkpt lat="42.96821" lon="-0.00352">
        <ele>1669.466797</ele>
        <time>2017-02-17T09:11:17Z</time>
      </trkpt>
      <trkpt lat="42.96834" lon="-0.00337">
        <ele>1667.543945</ele>
        <time>2017-02-17T09:11:33Z</time>
      </trkpt>
      <trkpt lat="42.96836" lon="-0.00333">
        <ele>1667.543945</ele>
        <time>2017-02-17T09:11:37Z</time>
      </trkpt>
      <trkpt lat="42.9684" lon="-0.00309">
        <ele>1665.621582</ele>
        <time>2017-02-17T09:11:55Z</time>
      </trkpt>
      <trkpt lat="42.96842" lon="-0.00284">
        <ele>1667.063477</ele>
        <time>2017-02-17T09:12:12Z</time>
      </trkpt>
      <trkpt lat="42.96842" lon="-0.00271">
        <ele>1667.063477</ele>
        <time>2017-02-17T09:12:21Z</time>
      </trkpt>
      <trkpt lat="42.96845" lon="-0.00246">
        <ele>1666.582764</ele>
        <time>2017-02-17T09:12:40Z</time>
      </trkpt>
      <trkpt lat="42.96846" lon="-0.00243">
        <ele>1666.582764</ele>
        <time>2017-02-17T09:12:42Z</time>
      </trkpt>
      <trkpt lat="42.96843" lon="-0.00222">
        <ele>1668.505371</ele>
        <time>2017-02-17T09:12:58Z</time>
      </trkpt>
      <trkpt lat="42.96844" lon="-0.00199">
        <ele>1668.505371</ele>
        <time>2017-02-17T09:13:14Z</time>
      </trkpt>
      <trkpt lat="42.96843" lon="-0.00181">
        <ele>1666.582764</ele>
        <time>2017-02-17T09:13:29Z</time>
      </trkpt>
      <trkpt lat="42.96845" lon="-0.00154">
        <ele>1667.543945</ele>
        <time>2017-02-17T09:13:50Z</time>
      </trkpt>
      <trkpt lat="42.96848" lon="-0.00128">
        <ele>1667.063477</ele>
        <time>2017-02-17T09:14:11Z</time>
      </trkpt>
      <trkpt lat="42.96843" lon="-0.0012">
        <ele>1667.543945</ele>
        <time>2017-02-17T09:14:26Z</time>
      </trkpt>
      <trkpt lat="42.96846" lon="-0.00109">
        <ele>1668.505371</ele>
        <time>2017-02-17T09:14:38Z</time>
      </trkpt>
      <trkpt lat="42.96846" lon="-0.00088">
        <ele>1670.427979</ele>
        <time>2017-02-17T09:14:54Z</time>
      </trkpt>
      <trkpt lat="42.96849" lon="-0.00073">
        <ele>1674.273193</ele>
        <time>2017-02-17T09:15:06Z</time>
      </trkpt>
      <trkpt lat="42.96856" lon="-0.00061">
        <ele>1673.79248</ele>
        <time>2017-02-17T09:15:20Z</time>
      </trkpt>
      <trkpt lat="42.96864" lon="-0.00045">
        <ele>1678.118652</ele>
        <time>2017-02-17T09:15:34Z</time>
      </trkpt>
      <trkpt lat="42.9687" lon="-0.00036">
        <ele>1679.079834</ele>
        <time>2017-02-17T09:15:43Z</time>
      </trkpt>
      <trkpt lat="42.96872" lon="-0.00015">
        <ele>1678.118652</ele>
        <time>2017-02-17T09:15:58Z</time>
      </trkpt>
      <trkpt lat="42.9687" lon="0.00019">
        <ele>1675.715088</ele>
        <time>2017-02-17T09:16:20Z</time>
      </trkpt>
      <trkpt lat="42.9687" lon="0.00043">
        <ele>1676.196045</ele>
        <time>2017-02-17T09:16:35Z</time>
      </trkpt>
      <trkpt lat="42.96874" lon="0.00075">
        <ele>1674.273193</ele>
        <time>2017-02-17T09:16:56Z</time>
      </trkpt>
      <trkpt lat="42.96865" lon="0.00103">
        <ele>1675.715088</ele>
        <time>2017-02-17T09:17:16Z</time>
      </trkpt>
      <trkpt lat="42.96845" lon="0.00141">
        <ele>1677.637939</ele>
        <time>2017-02-17T09:17:46Z</time>
      </trkpt>
      <trkpt lat="42.96843" lon="0.00151">
        <ele>1677.157471</ele>
        <time>2017-02-17T09:17:53Z</time>
      </trkpt>
      <trkpt lat="42.96844" lon="0.00159">
        <ele>1677.637939</ele>
        <time>2017-02-17T09:17:58Z</time>
      </trkpt>
      <trkpt lat="42.96848" lon="0.00173">
        <ele>1677.157471</ele>
        <time>2017-02-17T09:18:07Z</time>
      </trkpt>
      <trkpt lat="42.96848" lon="0.00175">
        <ele>1677.157471</ele>
        <time>2017-02-17T09:18:09Z</time>
      </trkpt>
      <trkpt lat="42.96851" lon="0.00178">
        <ele>1675.715088</ele>
        <time>2017-02-17T09:18:13Z</time>
      </trkpt>
      <trkpt lat="42.96855" lon="0.00187">
        <ele>1675.715088</ele>
        <time>2017-02-17T09:18:19Z</time>
      </trkpt>
      <trkpt lat="42.96864" lon="0.00215">
        <ele>1675.715088</ele>
        <time>2017-02-17T09:18:37Z</time>
      </trkpt>
      <trkpt lat="42.9687" lon="0.00247">
        <ele>1676.196045</ele>
        <time>2017-02-17T09:18:57Z</time>
      </trkpt>
      <trkpt lat="42.96871" lon="0.00252">
        <ele>1676.676758</ele>
        <time>2017-02-17T09:19:00Z</time>
      </trkpt>
      <trkpt lat="42.96875" lon="0.00267">
        <ele>1678.118652</ele>
        <time>2017-02-17T09:19:11Z</time>
      </trkpt>
      <trkpt lat="42.96877" lon="0.00272">
        <ele>1677.637939</ele>
        <time>2017-02-17T09:19:15Z</time>
      </trkpt>
      <trkpt lat="42.96892" lon="0.00288">
        <ele>1677.637939</ele>
        <time>2017-02-17T09:19:31Z</time>
      </trkpt>
      <trkpt lat="42.96906" lon="0.00305">
        <ele>1677.157471</ele>
        <time>2017-02-17T09:19:47Z</time>
      </trkpt>
      <trkpt lat="42.96906" lon="0.00309">
        <ele>1676.196045</ele>
        <time>2017-02-17T09:19:50Z</time>
      </trkpt>
      <trkpt lat="42.96902" lon="0.00339">
        <ele>1680.04126</ele>
        <time>2017-02-17T09:20:10Z</time>
      </trkpt>
      <trkpt lat="42.96895" lon="0.00366">
        <ele>1684.8479</ele>
        <time>2017-02-17T09:20:28Z</time>
      </trkpt>
      <trkpt lat="42.96894" lon="0.00369">
        <ele>1683.886475</ele>
        <time>2017-02-17T09:20:31Z</time>
      </trkpt>
      <trkpt lat="42.9689" lon="0.00402">
        <ele>1684.8479</ele>
        <time>2017-02-17T09:20:51Z</time>
      </trkpt>
      <trkpt lat="42.96891" lon="0.0044">
        <ele>1692.057861</ele>
        <time>2017-02-17T09:21:12Z</time>
      </trkpt>
      <trkpt lat="42.96889" lon="0.00464">
        <ele>1692.057861</ele>
        <time>2017-02-17T09:21:29Z</time>
      </trkpt>
      <trkpt lat="42.96882" lon="0.00497">
        <ele>1694.460938</ele>
        <time>2017-02-17T09:21:51Z</time>
      </trkpt>
      <trkpt lat="42.96873" lon="0.00522">
        <ele>1694.94165</ele>
        <time>2017-02-17T09:22:08Z</time>
      </trkpt>
      <trkpt lat="42.96861" lon="0.00558">
        <ele>1692.057861</ele>
        <time>2017-02-17T09:22:32Z</time>
      </trkpt>
      <trkpt lat="42.96853" lon="0.00593">
        <ele>1689.173584</ele>
        <time>2017-02-17T09:22:55Z</time>
      </trkpt>
      <trkpt lat="42.96851" lon="0.0063">
        <ele>1686.770264</ele>
        <time>2017-02-17T09:23:16Z</time>
      </trkpt>
      <trkpt lat="42.96846" lon="0.0067">
        <ele>1684.367188</ele>
        <time>2017-02-17T09:23:40Z</time>
      </trkpt>
      <trkpt lat="42.96843" lon="0.00686">
        <ele>1683.886475</ele>
        <time>2017-02-17T09:23:51Z</time>
      </trkpt>
      <trkpt lat="42.96844" lon="0.00715">
        <ele>1679.079834</ele>
        <time>2017-02-17T09:24:10Z</time>
      </trkpt>
      <trkpt lat="42.96828" lon="0.00733">
        <ele>1679.079834</ele>
        <time>2017-02-17T09:24:28Z</time>
      </trkpt>
      <trkpt lat="42.96822" lon="0.0075">
        <ele>1681.483154</ele>
        <time>2017-02-17T09:24:43Z</time>
      </trkpt>
      <trkpt lat="42.96816" lon="0.00757">
        <ele>1682.44458</ele>
        <time>2017-02-17T09:24:51Z</time>
      </trkpt>
      <trkpt lat="42.96808" lon="0.00779">
        <ele>1686.289795</ele>
        <time>2017-02-17T09:25:11Z</time>
      </trkpt>
      <trkpt lat="42.96804" lon="0.00804">
        <ele>1692.057861</ele>
        <time>2017-02-17T09:25:32Z</time>
      </trkpt>
      <trkpt lat="42.96798" lon="0.00828">
        <ele>1689.654297</ele>
        <time>2017-02-17T09:25:51Z</time>
      </trkpt>
      <trkpt lat="42.96791" lon="0.00846">
        <ele>1690.615479</ele>
        <time>2017-02-17T09:26:09Z</time>
      </trkpt>
      <trkpt lat="42.9679" lon="0.00857">
        <ele>1689.173584</ele>
        <time>2017-02-17T09:26:28Z</time>
      </trkpt>
      <trkpt lat="42.9679" lon="0.00856">
        <ele>1688.693115</ele>
        <time>2017-02-17T09:26:55Z</time>
      </trkpt>
      <trkpt lat="42.96789" lon="0.0086">
        <ele>1685.328369</ele>
        <time>2017-02-17T09:28:02Z</time>
      </trkpt>
      <trkpt lat="42.96776" lon="0.0089">
        <ele>1689.173584</ele>
        <time>2017-02-17T09:28:26Z</time>
      </trkpt>
      <trkpt lat="42.96771" lon="0.00905">
        <ele>1691.096191</ele>
        <time>2017-02-17T09:28:45Z</time>
      </trkpt>
      <trkpt lat="42.96768" lon="0.0091">
        <ele>1691.096191</ele>
        <time>2017-02-17T09:29:06Z</time>
      </trkpt>
      <trkpt lat="42.96761" lon="0.00934">
        <ele>1692.538574</ele>
        <time>2017-02-17T09:29:32Z</time>
      </trkpt>
      <trkpt lat="42.9675" lon="0.00959">
        <ele>1693.019043</ele>
        <time>2017-02-17T09:29:53Z</time>
      </trkpt>
      <trkpt lat="42.9675" lon="0.0096">
        <ele>1692.057861</ele>
        <time>2017-02-17T09:30:07Z</time>
      </trkpt>
      <trkpt lat="42.96754" lon="0.00958">
        <ele>1691.576904</ele>
        <time>2017-02-17T09:30:59Z</time>
      </trkpt>
      <trkpt lat="42.96749" lon="0.0096">
        <ele>1692.057861</ele>
        <time>2017-02-17T09:31:26Z</time>
      </trkpt>
      <trkpt lat="42.96747" lon="0.00968">
        <ele>1691.096191</ele>
        <time>2017-02-17T09:31:50Z</time>
      </trkpt>
      <trkpt lat="42.96736" lon="0.00991">
        <ele>1689.173584</ele>
        <time>2017-02-17T09:32:09Z</time>
      </trkpt>
      <trkpt lat="42.96708" lon="0.01047">
        <ele>1683.886475</ele>
        <time>2017-02-17T09:32:26Z</time>
      </trkpt>
      <trkpt lat="42.96705" lon="0.01053">
        <ele>1683.405762</ele>
        <time>2017-02-17T09:32:27Z</time>
      </trkpt>
      <trkpt lat="42.96688" lon="0.01096">
        <ele>1682.44458</ele>
        <time>2017-02-17T09:32:38Z</time>
      </trkpt>
      <trkpt lat="42.96687" lon="0.01108">
        <ele>1681.483154</ele>
        <time>2017-02-17T09:32:50Z</time>
      </trkpt>
      <trkpt lat="42.96688" lon="0.01118">
        <ele>1680.521973</ele>
        <time>2017-02-17T09:33:01Z</time>
      </trkpt>
      <trkpt lat="42.96688" lon="0.01125">
        <ele>1680.04126</ele>
        <time>2017-02-17T09:33:04Z</time>
      </trkpt>
      <trkpt lat="42.96689" lon="0.01167">
        <ele>1676.196045</ele>
        <time>2017-02-17T09:33:12Z</time>
      </trkpt>
      <trkpt lat="42.96676" lon="0.01198">
        <ele>1671.38916</ele>
        <time>2017-02-17T09:33:16Z</time>
      </trkpt>
      <trkpt lat="42.96668" lon="0.01229">
        <ele>1671.38916</ele>
        <time>2017-02-17T09:33:20Z</time>
      </trkpt>
      <trkpt lat="42.96658" lon="0.01252">
        <ele>1669.947266</ele>
        <time>2017-02-17T09:33:24Z</time>
      </trkpt>
      <trkpt lat="42.96651" lon="0.01272">
        <ele>1668.986084</ele>
        <time>2017-02-17T09:33:27Z</time>
      </trkpt>
      <trkpt lat="42.96634" lon="0.01297">
        <ele>1668.505371</ele>
        <time>2017-02-17T09:33:36Z</time>
      </trkpt>
      <trkpt lat="42.96634" lon="0.01298">
        <ele>1668.505371</ele>
        <time>2017-02-17T09:33:48Z</time>
      </trkpt>
      <trkpt lat="42.96616" lon="0.01319">
        <ele>1666.582764</ele>
        <time>2017-02-17T09:33:57Z</time>
      </trkpt>
      <trkpt lat="42.96607" lon="0.01333">
        <ele>1665.621582</ele>
        <time>2017-02-17T09:34:01Z</time>
      </trkpt>
      <trkpt lat="42.96594" lon="0.01353">
        <ele>1662.256836</ele>
        <time>2017-02-17T09:34:05Z</time>
      </trkpt>
      <trkpt lat="42.96591" lon="0.01375">
        <ele>1660.814941</ele>
        <time>2017-02-17T09:34:08Z</time>
      </trkpt>
      <trkpt lat="42.96558" lon="0.01409">
        <ele>1644.472412</ele>
        <time>2017-02-17T09:34:14Z</time>
      </trkpt>
      <trkpt lat="42.96548" lon="0.01409">
        <ele>1647.837158</ele>
        <time>2017-02-17T09:34:17Z</time>
      </trkpt>
      <trkpt lat="42.96529" lon="0.01397">
        <ele>1648.317627</ele>
        <time>2017-02-17T09:34:27Z</time>
      </trkpt>
      <trkpt lat="42.96502" lon="0.0141">
        <ele>1652.643555</ele>
        <time>2017-02-17T09:34:40Z</time>
      </trkpt>
      <trkpt lat="42.96477" lon="0.0143">
        <ele>1654.085693</ele>
        <time>2017-02-17T09:34:55Z</time>
      </trkpt>
      <trkpt lat="42.96458" lon="0.01459">
        <ele>1652.162842</ele>
        <time>2017-02-17T09:35:10Z</time>
      </trkpt>
      <trkpt lat="42.96456" lon="0.01465">
        <ele>1651.682373</ele>
        <time>2017-02-17T09:35:22Z</time>
      </trkpt>
      <trkpt lat="42.9645" lon="0.01483">
        <ele>1649.759766</ele>
        <time>2017-02-17T09:36:04Z</time>
      </trkpt>
      <trkpt lat="42.96439" lon="0.01533">
        <ele>1647.837158</ele>
        <time>2017-02-17T09:36:21Z</time>
      </trkpt>
      <trkpt lat="42.96431" lon="0.01548">
        <ele>1649.759766</ele>
        <time>2017-02-17T09:36:35Z</time>
      </trkpt>
      <trkpt lat="42.96425" lon="0.01569">
        <ele>1654.085693</ele>
        <time>2017-02-17T09:37:01Z</time>
      </trkpt>
      <trkpt lat="42.96412" lon="0.01591">
        <ele>1655.046875</ele>
        <time>2017-02-17T09:37:16Z</time>
      </trkpt>
      <trkpt lat="42.964" lon="0.01614">
        <ele>1655.527588</ele>
        <time>2017-02-17T09:37:31Z</time>
      </trkpt>
      <trkpt lat="42.96386" lon="0.01639">
        <ele>1660.334229</ele>
        <time>2017-02-17T09:37:50Z</time>
      </trkpt>
      <trkpt lat="42.96356" lon="0.01685">
        <ele>1656.48877</ele>
        <time>2017-02-17T09:38:02Z</time>
      </trkpt>
      <trkpt lat="42.96287" lon="0.0176">
        <ele>1652.643555</ele>
        <time>2017-02-17T09:38:20Z</time>
      </trkpt>
      <trkpt lat="42.96264" lon="0.0179">
        <ele>1654.566162</ele>
        <time>2017-02-17T09:38:34Z</time>
      </trkpt>
      <trkpt lat="42.96243" lon="0.01833">
        <ele>1647.837158</ele>
        <time>2017-02-17T09:38:43Z</time>
      </trkpt>
      <trkpt lat="42.96207" lon="0.01887">
        <ele>1646.395264</ele>
        <time>2017-02-17T09:38:53Z</time>
      </trkpt>
      <trkpt lat="42.96193" lon="0.0191">
        <ele>1645.433838</ele>
        <time>2017-02-17T09:39:03Z</time>
      </trkpt>
      <trkpt lat="42.96176" lon="0.01928">
        <ele>1645.433838</ele>
        <time>2017-02-17T09:39:16Z</time>
      </trkpt>
      <trkpt lat="42.96175" lon="0.01935">
        <ele>1645.914551</ele>
        <time>2017-02-17T09:39:20Z</time>
      </trkpt>
      <trkpt lat="42.96174" lon="0.01969">
        <ele>1643.510986</ele>
        <time>2017-02-17T09:39:35Z</time>
      </trkpt>
      <trkpt lat="42.96164" lon="0.02008">
        <ele>1641.107666</ele>
        <time>2017-02-17T09:39:48Z</time>
      </trkpt>
      <trkpt lat="42.96153" lon="0.02035">
        <ele>1638.70459</ele>
        <time>2017-02-17T09:39:53Z</time>
      </trkpt>
      <trkpt lat="42.96127" lon="0.02073">
        <ele>1637.262451</ele>
        <time>2017-02-17T09:40:03Z</time>
      </trkpt>
      <trkpt lat="42.96108" lon="0.02097">
        <ele>1637.743164</ele>
        <time>2017-02-17T09:40:18Z</time>
      </trkpt>
      <trkpt lat="42.96079" lon="0.02131">
        <ele>1636.781738</ele>
        <time>2017-02-17T09:40:34Z</time>
      </trkpt>
      <trkpt lat="42.96055" lon="0.02156">
        <ele>1633.897949</ele>
        <time>2017-02-17T09:40:48Z</time>
      </trkpt>
      <trkpt lat="42.96041" lon="0.0217">
        <ele>1632.936523</ele>
        <time>2017-02-17T09:41:00Z</time>
      </trkpt>
      <trkpt lat="42.96026" lon="0.02192">
        <ele>1631.01416</ele>
        <time>2017-02-17T09:41:13Z</time>
      </trkpt>
      <trkpt lat="42.96005" lon="0.02219">
        <ele>1631.01416</ele>
        <time>2017-02-17T09:41:25Z</time>
      </trkpt>
      <trkpt lat="42.95964" lon="0.02252">
        <ele>1631.494629</ele>
        <time>2017-02-17T09:41:46Z</time>
      </trkpt>
      <trkpt lat="42.95938" lon="0.02273">
        <ele>1629.091309</ele>
        <time>2017-02-17T09:42:00Z</time>
      </trkpt>
      <trkpt lat="42.95909" lon="0.02284">
        <ele>1629.572021</ele>
        <time>2017-02-17T09:42:14Z</time>
      </trkpt>
      <trkpt lat="42.95881" lon="0.02298">
        <ele>1629.091309</ele>
        <time>2017-02-17T09:42:29Z</time>
      </trkpt>
      <trkpt lat="42.95839" lon="0.02323">
        <ele>1625.726563</ele>
        <time>2017-02-17T09:42:44Z</time>
      </trkpt>
      <trkpt lat="42.95814" lon="0.02347">
        <ele>1624.284668</ele>
        <time>2017-02-17T09:42:58Z</time>
      </trkpt>
      <trkpt lat="42.958" lon="0.02362">
        <ele>1624.765381</ele>
        <time>2017-02-17T09:43:10Z</time>
      </trkpt>
      <trkpt lat="42.95789" lon="0.02375">
        <ele>1625.726563</ele>
        <time>2017-02-17T09:43:24Z</time>
      </trkpt>
      <trkpt lat="42.95768" lon="0.0239">
        <ele>1624.765381</ele>
        <time>2017-02-17T09:43:37Z</time>
      </trkpt>
      <trkpt lat="42.95752" lon="0.02394">
        <ele>1623.323486</ele>
        <time>2017-02-17T09:43:44Z</time>
      </trkpt>
      <trkpt lat="42.95737" lon="0.02387">
        <ele>1623.803955</ele>
        <time>2017-02-17T09:43:59Z</time>
      </trkpt>
      <trkpt lat="42.95714" lon="0.02383">
        <ele>1621.881348</ele>
        <time>2017-02-17T09:44:14Z</time>
      </trkpt>
      <trkpt lat="42.95673" lon="0.0239">
        <ele>1619.478271</ele>
        <time>2017-02-17T09:44:26Z</time>
      </trkpt>
      <trkpt lat="42.95597" lon="0.02394">
        <ele>1613.710205</ele>
        <time>2017-02-17T09:44:43Z</time>
      </trkpt>
      <trkpt lat="42.95563" lon="0.02387">
        <ele>1612.268311</ele>
        <time>2017-02-17T09:44:54Z</time>
      </trkpt>
      <trkpt lat="42.95526" lon="0.02389">
        <ele>1609.384277</ele>
        <time>2017-02-17T09:45:05Z</time>
      </trkpt>
      <trkpt lat="42.95494" lon="0.02402">
        <ele>1609.864746</ele>
        <time>2017-02-17T09:45:17Z</time>
      </trkpt>
      <trkpt lat="42.95484" lon="0.02416">
        <ele>1609.384277</ele>
        <time>2017-02-17T09:45:29Z</time>
      </trkpt>
      <trkpt lat="42.9547" lon="0.02434">
        <ele>1607.942383</ele>
        <time>2017-02-17T09:45:50Z</time>
      </trkpt>
      <trkpt lat="42.95451" lon="0.02453">
        <ele>1606.980957</ele>
        <time>2017-02-17T09:46:04Z</time>
      </trkpt>
      <trkpt lat="42.95446" lon="0.02476">
        <ele>1605.539063</ele>
        <time>2017-02-17T09:46:16Z</time>
      </trkpt>
      <trkpt lat="42.95445" lon="0.02478">
        <ele>1605.539063</ele>
        <time>2017-02-17T09:46:18Z</time>
      </trkpt>
      <trkpt lat="42.9543" lon="0.02503">
        <ele>1606.500244</ele>
        <time>2017-02-17T09:46:32Z</time>
      </trkpt>
      <trkpt lat="42.95427" lon="0.02512">
        <ele>1604.097168</ele>
        <time>2017-02-17T09:46:45Z</time>
      </trkpt>
      <trkpt lat="42.95424" lon="0.02526">
        <ele>1604.577637</ele>
        <time>2017-02-17T09:47:08Z</time>
      </trkpt>
      <trkpt lat="42.95423" lon="0.02527">
        <ele>1604.577637</ele>
        <time>2017-02-17T09:47:10Z</time>
      </trkpt>
      <trkpt lat="42.95416" lon="0.02531">
        <ele>1603.616455</ele>
        <time>2017-02-17T09:47:18Z</time>
      </trkpt>
      <trkpt lat="42.95409" lon="0.02534">
        <ele>1603.135742</ele>
        <time>2017-02-17T09:47:30Z</time>
      </trkpt>
      <trkpt lat="42.95401" lon="0.02532">
        <ele>1604.577637</ele>
        <time>2017-02-17T09:47:35Z</time>
      </trkpt>
      <trkpt lat="42.95379" lon="0.0252">
        <ele>1604.577637</ele>
        <time>2017-02-17T09:47:46Z</time>
      </trkpt>
      <trkpt lat="42.95352" lon="0.02502">
        <ele>1604.577637</ele>
        <time>2017-02-17T09:47:59Z</time>
      </trkpt>
      <trkpt lat="42.95315" lon="0.02499">
        <ele>1604.097168</ele>
        <time>2017-02-17T09:48:13Z</time>
      </trkpt>
      <trkpt lat="42.95286" lon="0.02494">
        <ele>1601.693848</ele>
        <time>2017-02-17T09:48:23Z</time>
      </trkpt>
      <trkpt lat="42.95279" lon="0.02497">
        <ele>1601.213135</ele>
        <time>2017-02-17T09:48:25Z</time>
      </trkpt>
      <trkpt lat="42.95251" lon="0.02477">
        <ele>1598.809814</ele>
        <time>2017-02-17T09:48:36Z</time>
      </trkpt>
      <trkpt lat="42.95239" lon="0.02449">
        <ele>1593.041748</ele>
        <time>2017-02-17T09:48:42Z</time>
      </trkpt>
      <trkpt lat="42.95236" lon="0.02434">
        <ele>1591.119141</ele>
        <time>2017-02-17T09:48:44Z</time>
      </trkpt>
      <trkpt lat="42.95222" lon="0.02412">
        <ele>1589.677246</ele>
        <time>2017-02-17T09:48:48Z</time>
      </trkpt>
      <trkpt lat="42.95207" lon="0.02356">
        <ele>1583.428711</ele>
        <time>2017-02-17T09:49:00Z</time>
      </trkpt>
      <trkpt lat="42.95211" lon="0.02337">
        <ele>1581.025635</ele>
        <time>2017-02-17T09:49:04Z</time>
      </trkpt>
      <trkpt lat="42.952" lon="0.02319">
        <ele>1581.025635</ele>
        <time>2017-02-17T09:49:09Z</time>
      </trkpt>
      <trkpt lat="42.9518" lon="0.02319">
        <ele>1578.141357</ele>
        <time>2017-02-17T09:49:15Z</time>
      </trkpt>
      <trkpt lat="42.95159" lon="0.02332">
        <ele>1576.699463</ele>
        <time>2017-02-17T09:49:19Z</time>
      </trkpt>
      <trkpt lat="42.95123" lon="0.02353">
        <ele>1575.257324</ele>
        <time>2017-02-17T09:49:32Z</time>
      </trkpt>
      <trkpt lat="42.951" lon="0.02365">
        <ele>1574.776855</ele>
        <time>2017-02-17T09:49:45Z</time>
      </trkpt>
      <trkpt lat="42.95075" lon="0.02379">
        <ele>1569.970215</ele>
        <time>2017-02-17T09:50:01Z</time>
      </trkpt>
      <trkpt lat="42.95053" lon="0.024">
        <ele>1568.52832</ele>
        <time>2017-02-17T09:50:17Z</time>
      </trkpt>
      <trkpt lat="42.95048" lon="0.02409">
        <ele>1569.009033</ele>
        <time>2017-02-17T09:50:29Z</time>
      </trkpt>
      <trkpt lat="42.95039" lon="0.02423">
        <ele>1571.892822</ele>
        <time>2017-02-17T09:50:49Z</time>
      </trkpt>
      <trkpt lat="42.9504" lon="0.02417">
        <ele>1572.854248</ele>
        <time>2017-02-17T09:51:43Z</time>
      </trkpt>
      <trkpt lat="42.95039" lon="0.02417">
        <ele>1572.373535</ele>
        <time>2017-02-17T09:52:10Z</time>
      </trkpt>
      <trkpt lat="42.95044" lon="0.02419">
        <ele>1572.373535</ele>
        <time>2017-02-17T09:52:57Z</time>
      </trkpt>
      <trkpt lat="42.95044" lon="0.02423">
        <ele>1571.412109</ele>
        <time>2017-02-17T09:53:50Z</time>
      </trkpt>
      <trkpt lat="42.95044" lon="0.02423">
        <ele>1570.931641</ele>
        <time>2017-02-17T09:54:37Z</time>
      </trkpt>
      <trkpt lat="42.95043" lon="0.02425">
        <ele>1570.450928</ele>
        <time>2017-02-17T09:55:31Z</time>
      </trkpt>
      <trkpt lat="42.95045" lon="0.02424">
        <ele>1568.52832</ele>
        <time>2017-02-17T09:57:21Z</time>
      </trkpt>
      <trkpt lat="42.9504" lon="0.02422">
        <ele>1567.566895</ele>
        <time>2017-02-17T09:58:04Z</time>
      </trkpt>
      <trkpt lat="42.9504" lon="0.02427">
        <ele>1565.644531</ele>
        <time>2017-02-17T09:58:39Z</time>
      </trkpt>
      <trkpt lat="42.95041" lon="0.02426">
        <ele>1565.644531</ele>
        <time>2017-02-17T09:59:25Z</time>
      </trkpt>
      <trkpt lat="42.95038" lon="0.02423">
        <ele>1566.125</ele>
        <time>2017-02-17T09:59:39Z</time>
      </trkpt>
      <trkpt lat="42.9504" lon="0.02424">
        <ele>1566.125</ele>
        <time>2017-02-17T09:59:48Z</time>
      </trkpt>
      <trkpt lat="42.95035" lon="0.0243">
        <ele>1566.125</ele>
        <time>2017-02-17T09:59:54Z</time>
      </trkpt>
      <trkpt lat="42.95018" lon="0.02446">
        <ele>1564.683105</ele>
        <time>2017-02-17T10:00:13Z</time>
      </trkpt>
      <trkpt lat="42.95006" lon="0.02458">
        <ele>1566.605713</ele>
        <time>2017-02-17T10:00:29Z</time>
      </trkpt>
      <trkpt lat="42.94996" lon="0.02467">
        <ele>1566.125</ele>
        <time>2017-02-17T10:00:45Z</time>
      </trkpt>
      <trkpt lat="42.94987" lon="0.02476">
        <ele>1565.163818</ele>
        <time>2017-02-17T10:01:00Z</time>
      </trkpt>
      <trkpt lat="42.9497" lon="0.0249">
        <ele>1562.279541</ele>
        <time>2017-02-17T10:01:23Z</time>
      </trkpt>
      <trkpt lat="42.94955" lon="0.02506">
        <ele>1562.760254</ele>
        <time>2017-02-17T10:01:41Z</time>
      </trkpt>
      <trkpt lat="42.94942" lon="0.02522">
        <ele>1562.760254</ele>
        <time>2017-02-17T10:02:00Z</time>
      </trkpt>
      <trkpt lat="42.94924" lon="0.02538">
        <ele>1558.434326</ele>
        <time>2017-02-17T10:02:23Z</time>
      </trkpt>
      <trkpt lat="42.94906" lon="0.02554">
        <ele>1558.434326</ele>
        <time>2017-02-17T10:02:44Z</time>
      </trkpt>
      <trkpt lat="42.94892" lon="0.02568">
        <ele>1559.395752</ele>
        <time>2017-02-17T10:03:03Z</time>
      </trkpt>
      <trkpt lat="42.9488" lon="0.02582">
        <ele>1560.356934</ele>
        <time>2017-02-17T10:03:23Z</time>
      </trkpt>
      <trkpt lat="42.94866" lon="0.02592">
        <ele>1559.876221</ele>
        <time>2017-02-17T10:03:46Z</time>
      </trkpt>
      <trkpt lat="42.94854" lon="0.02595">
        <ele>1563.721436</ele>
        <time>2017-02-17T10:04:08Z</time>
      </trkpt>
      <trkpt lat="42.94843" lon="0.02589">
        <ele>1568.52832</ele>
        <time>2017-02-17T10:04:27Z</time>
      </trkpt>
      <trkpt lat="42.94836" lon="0.02591">
        <ele>1571.892822</ele>
        <time>2017-02-17T10:04:38Z</time>
      </trkpt>
      <trkpt lat="42.94822" lon="0.02593">
        <ele>1578.141357</ele>
        <time>2017-02-17T10:04:57Z</time>
      </trkpt>
      <trkpt lat="42.94818" lon="0.02593">
        <ele>1580.064209</ele>
        <time>2017-02-17T10:05:10Z</time>
      </trkpt>
      <trkpt lat="42.94818" lon="0.02591">
        <ele>1580.544922</ele>
        <time>2017-02-17T10:05:12Z</time>
      </trkpt>
      <trkpt lat="42.94805" lon="0.02584">
        <ele>1582.467529</ele>
        <time>2017-02-17T10:05:31Z</time>
      </trkpt>
      <trkpt lat="42.94792" lon="0.02584">
        <ele>1583.428711</ele>
        <time>2017-02-17T10:05:48Z</time>
      </trkpt>
      <trkpt lat="42.94792" lon="0.0258">
        <ele>1581.025635</ele>
        <time>2017-02-17T10:06:05Z</time>
      </trkpt>
      <trkpt lat="42.94797" lon="0.0257">
        <ele>1584.390137</ele>
        <time>2017-02-17T10:06:26Z</time>
      </trkpt>
      <trkpt lat="42.94786" lon="0.02571">
        <ele>1589.677246</ele>
        <time>2017-02-17T10:06:48Z</time>
      </trkpt>
      <trkpt lat="42.9478" lon="0.02577">
        <ele>1591.119141</ele>
        <time>2017-02-17T10:07:08Z</time>
      </trkpt>
      <trkpt lat="42.94778" lon="0.02581">
        <ele>1592.080566</ele>
        <time>2017-02-17T10:07:28Z</time>
      </trkpt>
      <trkpt lat="42.94772" lon="0.02594">
        <ele>1591.599854</ele>
        <time>2017-02-17T10:07:44Z</time>
      </trkpt>
      <trkpt lat="42.94768" lon="0.0261">
        <ele>1595.925781</ele>
        <time>2017-02-17T10:08:07Z</time>
      </trkpt>
      <trkpt lat="42.94766" lon="0.02618">
        <ele>1597.848633</ele>
        <time>2017-02-17T10:08:29Z</time>
      </trkpt>
      <trkpt lat="42.94769" lon="0.02615">
        <ele>1596.406738</ele>
        <time>2017-02-17T10:08:57Z</time>
      </trkpt>
      <trkpt lat="42.94769" lon="0.02615">
        <ele>1594.003174</ele>
        <time>2017-02-17T10:09:31Z</time>
      </trkpt>
      <trkpt lat="42.94771" lon="0.02614">
        <ele>1593.041748</ele>
        <time>2017-02-17T10:10:23Z</time>
      </trkpt>
      <trkpt lat="42.94765" lon="0.02604">
        <ele>1593.041748</ele>
        <time>2017-02-17T10:11:17Z</time>
      </trkpt>
      <trkpt lat="42.94762" lon="0.02592">
        <ele>1594.003174</ele>
        <time>2017-02-17T10:11:31Z</time>
      </trkpt>
      <trkpt lat="42.94758" lon="0.02592">
        <ele>1594.964355</ele>
        <time>2017-02-17T10:11:48Z</time>
      </trkpt>
      <trkpt lat="42.94752" lon="0.02601">
        <ele>1598.809814</ele>
        <time>2017-02-17T10:12:00Z</time>
      </trkpt>
      <trkpt lat="42.94745" lon="0.02615">
        <ele>1602.655029</ele>
        <time>2017-02-17T10:12:17Z</time>
      </trkpt>
      <trkpt lat="42.94739" lon="0.02625">
        <ele>1603.616455</ele>
        <time>2017-02-17T10:12:39Z</time>
      </trkpt>
      <trkpt lat="42.94735" lon="0.02636">
        <ele>1606.019531</ele>
        <time>2017-02-17T10:13:06Z</time>
      </trkpt>
      <trkpt lat="42.9473" lon="0.02627">
        <ele>1609.384277</ele>
        <time>2017-02-17T10:13:24Z</time>
      </trkpt>
      <trkpt lat="42.94727" lon="0.02617">
        <ele>1611.306885</ele>
        <time>2017-02-17T10:13:39Z</time>
      </trkpt>
      <trkpt lat="42.94722" lon="0.02623">
        <ele>1612.749023</ele>
        <time>2017-02-17T10:13:52Z</time>
      </trkpt>
      <trkpt lat="42.94713" lon="0.02633">
        <ele>1611.306885</ele>
        <time>2017-02-17T10:14:10Z</time>
      </trkpt>
      <trkpt lat="42.94705" lon="0.02643">
        <ele>1615.152344</ele>
        <time>2017-02-17T10:14:31Z</time>
      </trkpt>
      <trkpt lat="42.94699" lon="0.02654">
        <ele>1616.113525</ele>
        <time>2017-02-17T10:14:54Z</time>
      </trkpt>
      <trkpt lat="42.94692" lon="0.02665">
        <ele>1618.997559</ele>
        <time>2017-02-17T10:15:18Z</time>
      </trkpt>
      <trkpt lat="42.94682" lon="0.02683">
        <ele>1622.842773</ele>
        <time>2017-02-17T10:15:51Z</time>
      </trkpt>
      <trkpt lat="42.94677" lon="0.02701">
        <ele>1628.130127</ele>
        <time>2017-02-17T10:16:23Z</time>
      </trkpt>
      <trkpt lat="42.9467" lon="0.02721">
        <ele>1631.975342</ele>
        <time>2017-02-17T10:16:53Z</time>
      </trkpt>
      <trkpt lat="42.94669" lon="0.02728">
        <ele>1632.936523</ele>
        <time>2017-02-17T10:17:12Z</time>
      </trkpt>
      <trkpt lat="42.94661" lon="0.02745">
        <ele>1634.378662</ele>
        <time>2017-02-17T10:17:40Z</time>
      </trkpt>
      <trkpt lat="42.94664" lon="0.02742">
        <ele>1638.223877</ele>
        <time>2017-02-17T10:18:05Z</time>
      </trkpt>
      <trkpt lat="42.94664" lon="0.02731">
        <ele>1641.107666</ele>
        <time>2017-02-17T10:18:18Z</time>
      </trkpt>
      <trkpt lat="42.94663" lon="0.02725">
        <ele>1640.626953</ele>
        <time>2017-02-17T10:18:33Z</time>
      </trkpt>
      <trkpt lat="42.9466" lon="0.02711">
        <ele>1643.991699</ele>
        <time>2017-02-17T10:18:53Z</time>
      </trkpt>
      <trkpt lat="42.94659" lon="0.02706">
        <ele>1644.953125</ele>
        <time>2017-02-17T10:19:09Z</time>
      </trkpt>
      <trkpt lat="42.94654" lon="0.02715">
        <ele>1645.914551</ele>
        <time>2017-02-17T10:19:27Z</time>
      </trkpt>
      <trkpt lat="42.94649" lon="0.02732">
        <ele>1647.837158</ele>
        <time>2017-02-17T10:19:55Z</time>
      </trkpt>
      <trkpt lat="42.94636" lon="0.02763">
        <ele>1652.162842</ele>
        <time>2017-02-17T10:20:41Z</time>
      </trkpt>
      <trkpt lat="42.94633" lon="0.0279">
        <ele>1657.450195</ele>
        <time>2017-02-17T10:21:25Z</time>
      </trkpt>
      <trkpt lat="42.94633" lon="0.02812">
        <ele>1662.737549</ele>
        <time>2017-02-17T10:21:58Z</time>
      </trkpt>
      <trkpt lat="42.94637" lon="0.02831">
        <ele>1668.024658</ele>
        <time>2017-02-17T10:22:26Z</time>
      </trkpt>
      <trkpt lat="42.94628" lon="0.02835">
        <ele>1673.79248</ele>
        <time>2017-02-17T10:22:49Z</time>
      </trkpt>
      <trkpt lat="42.94612" lon="0.02835">
        <ele>1680.521973</ele>
        <time>2017-02-17T10:23:17Z</time>
      </trkpt>
      <trkpt lat="42.94597" lon="0.02829">
        <ele>1688.212402</ele>
        <time>2017-02-17T10:23:51Z</time>
      </trkpt>
      <trkpt lat="42.94588" lon="0.02842">
        <ele>1693.980469</ele>
        <time>2017-02-17T10:24:18Z</time>
      </trkpt>
      <trkpt lat="42.94575" lon="0.02859">
        <ele>1702.151367</ele>
        <time>2017-02-17T10:24:48Z</time>
      </trkpt>
      <trkpt lat="42.94561" lon="0.02871">
        <ele>1707.438721</ele>
        <time>2017-02-17T10:25:20Z</time>
      </trkpt>
      <trkpt lat="42.94546" lon="0.02885">
        <ele>1710.803467</ele>
        <time>2017-02-17T10:25:57Z</time>
      </trkpt>
      <trkpt lat="42.94542" lon="0.02909">
        <ele>1716.090576</ele>
        <time>2017-02-17T10:26:35Z</time>
      </trkpt>
      <trkpt lat="42.94529" lon="0.02921">
        <ele>1719.455322</ele>
        <time>2017-02-17T10:27:01Z</time>
      </trkpt>
      <trkpt lat="42.94516" lon="0.02931">
        <ele>1725.223145</ele>
        <time>2017-02-17T10:27:27Z</time>
      </trkpt>
      <trkpt lat="42.94504" lon="0.02943">
        <ele>1729.068359</ele>
        <time>2017-02-17T10:27:53Z</time>
      </trkpt>
      <trkpt lat="42.94484" lon="0.02953">
        <ele>1733.875</ele>
        <time>2017-02-17T10:28:23Z</time>
      </trkpt>
      <trkpt lat="42.94484" lon="0.02947">
        <ele>1737.720215</ele>
        <time>2017-02-17T10:28:50Z</time>
      </trkpt>
      <trkpt lat="42.94472" lon="0.02948">
        <ele>1738.200928</ele>
        <time>2017-02-17T10:29:56Z</time>
      </trkpt>
      <trkpt lat="42.94449" lon="0.02961">
        <ele>1736.758789</ele>
        <time>2017-02-17T10:30:23Z</time>
      </trkpt>
      <trkpt lat="42.9443" lon="0.02966">
        <ele>1736.27832</ele>
        <time>2017-02-17T10:30:47Z</time>
      </trkpt>
      <trkpt lat="42.9441" lon="0.0296">
        <ele>1735.797607</ele>
        <time>2017-02-17T10:31:14Z</time>
      </trkpt>
      <trkpt lat="42.94393" lon="0.02957">
        <ele>1734.836426</ele>
        <time>2017-02-17T10:31:39Z</time>
      </trkpt>
      <trkpt lat="42.94374" lon="0.02964">
        <ele>1733.394287</ele>
        <time>2017-02-17T10:32:15Z</time>
      </trkpt>
      <trkpt lat="42.94355" lon="0.02975">
        <ele>1731.952393</ele>
        <time>2017-02-17T10:32:52Z</time>
      </trkpt>
      <trkpt lat="42.94336" lon="0.02984">
        <ele>1730.510498</ele>
        <time>2017-02-17T10:33:29Z</time>
      </trkpt>
      <trkpt lat="42.94324" lon="0.02986">
        <ele>1730.029785</ele>
        <time>2017-02-17T10:33:48Z</time>
      </trkpt>
      <trkpt lat="42.94319" lon="0.02996">
        <ele>1729.068359</ele>
        <time>2017-02-17T10:34:22Z</time>
      </trkpt>
      <trkpt lat="42.94297" lon="0.03006">
        <ele>1728.107178</ele>
        <time>2017-02-17T10:34:55Z</time>
      </trkpt>
      <trkpt lat="42.94293" lon="0.03019">
        <ele>1727.145996</ele>
        <time>2017-02-17T10:35:20Z</time>
      </trkpt>
      <trkpt lat="42.94279" lon="0.03047">
        <ele>1726.665283</ele>
        <time>2017-02-17T10:36:03Z</time>
      </trkpt>
      <trkpt lat="42.9426" lon="0.03049">
        <ele>1726.665283</ele>
        <time>2017-02-17T10:36:36Z</time>
      </trkpt>
      <trkpt lat="42.94254" lon="0.03047">
        <ele>1727.145996</ele>
        <time>2017-02-17T10:36:55Z</time>
      </trkpt>
      <trkpt lat="42.94248" lon="0.03044">
        <ele>1727.145996</ele>
        <time>2017-02-17T10:37:01Z</time>
      </trkpt>
      <trkpt lat="42.94254" lon="0.03034">
        <ele>1728.107178</ele>
        <time>2017-02-17T10:37:21Z</time>
      </trkpt>
      <trkpt lat="42.9425" lon="0.0303">
        <ele>1728.587891</ele>
        <time>2017-02-17T10:38:14Z</time>
      </trkpt>
      <trkpt lat="42.94247" lon="0.0301">
        <ele>1730.510498</ele>
        <time>2017-02-17T10:38:41Z</time>
      </trkpt>
      <trkpt lat="42.9425" lon="0.02995">
        <ele>1730.991211</ele>
        <time>2017-02-17T10:39:07Z</time>
      </trkpt>
      <trkpt lat="42.9425" lon="0.02977">
        <ele>1731.952393</ele>
        <time>2017-02-17T10:39:44Z</time>
      </trkpt>
      <trkpt lat="42.94245" lon="0.02987">
        <ele>1732.913574</ele>
        <time>2017-02-17T10:40:03Z</time>
      </trkpt>
      <trkpt lat="42.94227" lon="0.03007">
        <ele>1734.355713</ele>
        <time>2017-02-17T10:40:52Z</time>
      </trkpt>
      <trkpt lat="42.94215" lon="0.0301">
        <ele>1734.836426</ele>
        <time>2017-02-17T10:41:18Z</time>
      </trkpt>
      <trkpt lat="42.94207" lon="0.03015">
        <ele>1734.836426</ele>
        <time>2017-02-17T10:41:51Z</time>
      </trkpt>
      <trkpt lat="42.94209" lon="0.02991">
        <ele>1734.355713</ele>
        <time>2017-02-17T10:42:19Z</time>
      </trkpt>
      <trkpt lat="42.94219" lon="0.02983">
        <ele>1734.836426</ele>
        <time>2017-02-17T10:42:54Z</time>
      </trkpt>
      <trkpt lat="42.94214" lon="0.02994">
        <ele>1734.355713</ele>
        <time>2017-02-17T10:43:46Z</time>
      </trkpt>
      <trkpt lat="42.94198" lon="0.03003">
        <ele>1736.758789</ele>
        <time>2017-02-17T10:44:10Z</time>
      </trkpt>
      <trkpt lat="42.94188" lon="0.02994">
        <ele>1748.775391</ele>
        <time>2017-02-17T10:44:53Z</time>
      </trkpt>
      <trkpt lat="42.94181" lon="0.02973">
        <ele>1770.405029</ele>
        <time>2017-02-17T10:45:20Z</time>
      </trkpt>
      <trkpt lat="42.94175" lon="0.02967">
        <ele>1784.344238</ele>
        <time>2017-02-17T10:45:43Z</time>
      </trkpt>
      <trkpt lat="42.94163" lon="0.02981">
        <ele>1811.741943</ele>
        <time>2017-02-17T10:46:20Z</time>
      </trkpt>
      <trkpt lat="42.94156" lon="0.02982">
        <ele>1821.835693</ele>
        <time>2017-02-17T10:46:44Z</time>
      </trkpt>
      <trkpt lat="42.94157" lon="0.02959">
        <ele>1827.603516</ele>
        <time>2017-02-17T10:47:17Z</time>
      </trkpt>
      <trkpt lat="42.94145" lon="0.02969">
        <ele>1833.371338</ele>
        <time>2017-02-17T10:47:55Z</time>
      </trkpt>
      <trkpt lat="42.94133" lon="0.0298">
        <ele>1837.69751</ele>
        <time>2017-02-17T10:48:26Z</time>
      </trkpt>
      <trkpt lat="42.9412" lon="0.02982">
        <ele>1846.349365</ele>
        <time>2017-02-17T10:49:00Z</time>
      </trkpt>
      <trkpt lat="42.94103" lon="0.02995">
        <ele>1851.155762</ele>
        <time>2017-02-17T10:49:32Z</time>
      </trkpt>
      <trkpt lat="42.94093" lon="0.02996">
        <ele>1850.19458</ele>
        <time>2017-02-17T10:50:01Z</time>
      </trkpt>
      <trkpt lat="42.94078" lon="0.03006">
        <ele>1852.5979</ele>
        <time>2017-02-17T10:50:31Z</time>
      </trkpt>
      <trkpt lat="42.94064" lon="0.03014">
        <ele>1853.078613</ele>
        <time>2017-02-17T10:51:00Z</time>
      </trkpt>
      <trkpt lat="42.94054" lon="0.03011">
        <ele>1855.962402</ele>
        <time>2017-02-17T10:51:33Z</time>
      </trkpt>
      <trkpt lat="42.94038" lon="0.03006">
        <ele>1859.327148</ele>
        <time>2017-02-17T10:52:12Z</time>
      </trkpt>
      <trkpt lat="42.94029" lon="0.03008">
        <ele>1866.056152</ele>
        <time>2017-02-17T10:52:45Z</time>
      </trkpt>
      <trkpt lat="42.94011" lon="0.03007">
        <ele>1878.072754</ele>
        <time>2017-02-17T10:53:26Z</time>
      </trkpt>
      <trkpt lat="42.93992" lon="0.03001">
        <ele>1885.282715</ele>
        <time>2017-02-17T10:54:09Z</time>
      </trkpt>
      <trkpt lat="42.93985" lon="0.03004">
        <ele>1888.647461</ele>
        <time>2017-02-17T10:54:27Z</time>
      </trkpt>
      <trkpt lat="42.93971" lon="0.03007">
        <ele>1893.453857</ele>
        <time>2017-02-17T10:54:54Z</time>
      </trkpt>
      <trkpt lat="42.93954" lon="0.03014">
        <ele>1897.779785</ele>
        <time>2017-02-17T10:55:16Z</time>
      </trkpt>
      <trkpt lat="42.9394" lon="0.0302">
        <ele>1901.144531</ele>
        <time>2017-02-17T10:55:39Z</time>
      </trkpt>
      <trkpt lat="42.93919" lon="0.03028">
        <ele>1903.067139</ele>
        <time>2017-02-17T10:56:05Z</time>
      </trkpt>
      <trkpt lat="42.93898" lon="0.03033">
        <ele>1906.431641</ele>
        <time>2017-02-17T10:56:31Z</time>
      </trkpt>
      <trkpt lat="42.93876" lon="0.03037">
        <ele>1910.276855</ele>
        <time>2017-02-17T10:57:03Z</time>
      </trkpt>
      <trkpt lat="42.93861" lon="0.03043">
        <ele>1913.641357</ele>
        <time>2017-02-17T10:57:33Z</time>
      </trkpt>
      <trkpt lat="42.93848" lon="0.03041">
        <ele>1915.083496</ele>
        <time>2017-02-17T10:58:02Z</time>
      </trkpt>
      <trkpt lat="42.93837" lon="0.03043">
        <ele>1915.564209</ele>
        <time>2017-02-17T10:58:35Z</time>
      </trkpt>
      <trkpt lat="42.93815" lon="0.03041">
        <ele>1915.083496</ele>
        <time>2017-02-17T10:58:59Z</time>
      </trkpt>
      <trkpt lat="42.938" lon="0.03038">
        <ele>1914.602783</ele>
        <time>2017-02-17T10:59:20Z</time>
      </trkpt>
      <trkpt lat="42.93778" lon="0.03029">
        <ele>1913.641357</ele>
        <time>2017-02-17T10:59:45Z</time>
      </trkpt>
      <trkpt lat="42.93762" lon="0.0302">
        <ele>1914.12207</ele>
        <time>2017-02-17T11:00:18Z</time>
      </trkpt>
      <trkpt lat="42.93746" lon="0.03008">
        <ele>1913.641357</ele>
        <time>2017-02-17T11:00:48Z</time>
      </trkpt>
      <trkpt lat="42.93731" lon="0.02999">
        <ele>1917.006348</ele>
        <time>2017-02-17T11:01:15Z</time>
      </trkpt>
      <trkpt lat="42.93709" lon="0.03006">
        <ele>1920.37085</ele>
        <time>2017-02-17T11:01:54Z</time>
      </trkpt>
      <trkpt lat="42.93691" lon="0.03015">
        <ele>1924.216064</ele>
        <time>2017-02-17T11:02:23Z</time>
      </trkpt>
      <trkpt lat="42.93688" lon="0.03015">
        <ele>1925.177246</ele>
        <time>2017-02-17T11:02:30Z</time>
      </trkpt>
      <trkpt lat="42.93682" lon="0.03015">
        <ele>1927.580566</ele>
        <time>2017-02-17T11:02:50Z</time>
      </trkpt>
      <trkpt lat="42.93665" lon="0.03022">
        <ele>1932.387451</ele>
        <time>2017-02-17T11:03:21Z</time>
      </trkpt>
      <trkpt lat="42.93644" lon="0.03024">
        <ele>1937.193848</ele>
        <time>2017-02-17T11:04:09Z</time>
      </trkpt>
      <trkpt lat="42.93618" lon="0.03036">
        <ele>1948.729736</ele>
        <time>2017-02-17T11:05:06Z</time>
      </trkpt>
      <trkpt lat="42.93602" lon="0.03038">
        <ele>1954.978271</ele>
        <time>2017-02-17T11:05:44Z</time>
      </trkpt>
      <trkpt lat="42.93593" lon="0.03033">
        <ele>1964.11084</ele>
        <time>2017-02-17T11:06:20Z</time>
      </trkpt>
      <trkpt lat="42.93586" lon="0.03029">
        <ele>1967.956055</ele>
        <time>2017-02-17T11:06:43Z</time>
      </trkpt>
      <trkpt lat="42.93578" lon="0.03022">
        <ele>1970.840088</ele>
        <time>2017-02-17T11:07:20Z</time>
      </trkpt>
      <trkpt lat="42.93572" lon="0.03016">
        <ele>1974.20459</ele>
        <time>2017-02-17T11:07:49Z</time>
      </trkpt>
      <trkpt lat="42.93569" lon="0.03015">
        <ele>1976.127197</ele>
        <time>2017-02-17T11:08:16Z</time>
      </trkpt>
      <trkpt lat="42.93554" lon="0.03034">
        <ele>1982.856445</ele>
        <time>2017-02-17T11:09:01Z</time>
      </trkpt>
      <trkpt lat="42.93545" lon="0.03051">
        <ele>1987.663086</ele>
        <time>2017-02-17T11:09:38Z</time>
      </trkpt>
      <trkpt lat="42.93528" lon="0.03064">
        <ele>1992.469727</ele>
        <time>2017-02-17T11:10:20Z</time>
      </trkpt>
      <trkpt lat="42.93522" lon="0.03057">
        <ele>1997.75708</ele>
        <time>2017-02-17T11:11:00Z</time>
      </trkpt>
      <trkpt lat="42.93507" lon="0.03047">
        <ele>2001.121582</ele>
        <time>2017-02-17T11:11:25Z</time>
      </trkpt>
      <trkpt lat="42.93495" lon="0.03033">
        <ele>2005.927979</ele>
        <time>2017-02-17T11:11:59Z</time>
      </trkpt>
      <trkpt lat="42.93485" lon="0.03034">
        <ele>2009.773193</ele>
        <time>2017-02-17T11:12:28Z</time>
      </trkpt>
      <trkpt lat="42.93473" lon="0.03018">
        <ele>2016.502686</ele>
        <time>2017-02-17T11:12:58Z</time>
      </trkpt>
      <trkpt lat="42.93461" lon="0.03004">
        <ele>2023.231934</ele>
        <time>2017-02-17T11:13:33Z</time>
      </trkpt>
      <trkpt lat="42.93453" lon="0.03013">
        <ele>2027.077148</ele>
        <time>2017-02-17T11:14:04Z</time>
      </trkpt>
      <trkpt lat="42.9343" lon="0.03026">
        <ele>2031.883789</ele>
        <time>2017-02-17T11:14:49Z</time>
      </trkpt>
      <trkpt lat="42.93414" lon="0.03026">
        <ele>2035.729004</ele>
        <time>2017-02-17T11:15:17Z</time>
      </trkpt>
      <trkpt lat="42.93406" lon="0.03023">
        <ele>2038.613037</ele>
        <time>2017-02-17T11:15:43Z</time>
      </trkpt>
      <trkpt lat="42.93396" lon="0.03009">
        <ele>2042.458252</ele>
        <time>2017-02-17T11:16:18Z</time>
      </trkpt>
      <trkpt lat="42.9339" lon="0.02992">
        <ele>2045.822998</ele>
        <time>2017-02-17T11:16:49Z</time>
      </trkpt>
      <trkpt lat="42.93384" lon="0.02975">
        <ele>2047.264893</ele>
        <time>2017-02-17T11:17:05Z</time>
      </trkpt>
      <trkpt lat="42.93377" lon="0.02958">
        <ele>2049.1875</ele>
        <time>2017-02-17T11:17:26Z</time>
      </trkpt>
      <trkpt lat="42.93382" lon="0.02946">
        <ele>2052.071289</ele>
        <time>2017-02-17T11:17:50Z</time>
      </trkpt>
      <trkpt lat="42.93386" lon="0.02932">
        <ele>2055.436035</ele>
        <time>2017-02-17T11:18:23Z</time>
      </trkpt>
      <trkpt lat="42.93383" lon="0.02927">
        <ele>2058.800537</ele>
        <time>2017-02-17T11:18:53Z</time>
      </trkpt>
      <trkpt lat="42.93365" lon="0.02926">
        <ele>2060.723389</ele>
        <time>2017-02-17T11:19:14Z</time>
      </trkpt>
      <trkpt lat="42.93363" lon="0.02919">
        <ele>2063.126709</ele>
        <time>2017-02-17T11:19:38Z</time>
      </trkpt>
      <trkpt lat="42.93359" lon="0.02907">
        <ele>2066.491211</ele>
        <time>2017-02-17T11:20:07Z</time>
      </trkpt>
      <trkpt lat="42.93363" lon="0.02885">
        <ele>2070.336426</ele>
        <time>2017-02-17T11:20:43Z</time>
      </trkpt>
      <trkpt lat="42.9336" lon="0.02873">
        <ele>2073.700928</ele>
        <time>2017-02-17T11:21:13Z</time>
      </trkpt>
      <trkpt lat="42.93355" lon="0.02852">
        <ele>2078.0271</ele>
        <time>2017-02-17T11:21:49Z</time>
      </trkpt>
      <trkpt lat="42.93355" lon="0.02825">
        <ele>2082.833496</ele>
        <time>2017-02-17T11:22:21Z</time>
      </trkpt>
      <trkpt lat="42.93356" lon="0.02817">
        <ele>2087.640137</ele>
        <time>2017-02-17T11:23:01Z</time>
      </trkpt>
      <trkpt lat="42.93352" lon="0.02804">
        <ele>2090.523926</ele>
        <time>2017-02-17T11:23:25Z</time>
      </trkpt>
      <trkpt lat="42.93337" lon="0.02807">
        <ele>2091.004639</ele>
        <time>2017-02-17T11:23:54Z</time>
      </trkpt>
      <trkpt lat="42.93333" lon="0.02789">
        <ele>2091.004639</ele>
        <time>2017-02-17T11:24:20Z</time>
      </trkpt>
      <trkpt lat="42.93334" lon="0.02765">
        <ele>2091.485352</ele>
        <time>2017-02-17T11:25:03Z</time>
      </trkpt>
      <trkpt lat="42.9333" lon="0.02738">
        <ele>2091.966064</ele>
        <time>2017-02-17T11:25:36Z</time>
      </trkpt>
      <trkpt lat="42.93323" lon="0.02729">
        <ele>2092.92749</ele>
        <time>2017-02-17T11:26:20Z</time>
      </trkpt>
      <trkpt lat="42.93309" lon="0.02714">
        <ele>2093.888916</ele>
        <time>2017-02-17T11:26:50Z</time>
      </trkpt>
      <trkpt lat="42.93299" lon="0.02709">
        <ele>2096.772705</ele>
        <time>2017-02-17T11:27:22Z</time>
      </trkpt>
      <trkpt lat="42.93299" lon="0.02691">
        <ele>2099.176025</ele>
        <time>2017-02-17T11:27:54Z</time>
      </trkpt>
      <trkpt lat="42.93292" lon="0.02688">
        <ele>2100.61792</ele>
        <time>2017-02-17T11:28:08Z</time>
      </trkpt>
      <trkpt lat="42.93289" lon="0.02691">
        <ele>2102.540527</ele>
        <time>2017-02-17T11:28:16Z</time>
      </trkpt>
      <trkpt lat="42.93285" lon="0.02698">
        <ele>2103.982666</ele>
        <time>2017-02-17T11:28:29Z</time>
      </trkpt>
      <trkpt lat="42.93279" lon="0.02679">
        <ele>2103.02124</ele>
        <time>2017-02-17T11:28:59Z</time>
      </trkpt>
      <trkpt lat="42.93278" lon="0.02661">
        <ele>2101.098633</ele>
        <time>2017-02-17T11:29:29Z</time>
      </trkpt>
      <trkpt lat="42.93259" lon="0.02682">
        <ele>2094.850098</ele>
        <time>2017-02-17T11:30:39Z</time>
      </trkpt>
      <trkpt lat="42.93249" lon="0.02697">
        <ele>2093.408203</ele>
        <time>2017-02-17T11:31:06Z</time>
      </trkpt>
      <trkpt lat="42.93244" lon="0.02678">
        <ele>2091.004639</ele>
        <time>2017-02-17T11:31:32Z</time>
      </trkpt>
      <trkpt lat="42.93237" lon="0.02667">
        <ele>2089.562744</ele>
        <time>2017-02-17T11:31:53Z</time>
      </trkpt>
      <trkpt lat="42.93234" lon="0.0267">
        <ele>2083.794922</ele>
        <time>2017-02-17T11:32:52Z</time>
      </trkpt>
      <trkpt lat="42.93217" lon="0.02688">
        <ele>2082.833496</ele>
        <time>2017-02-17T11:33:39Z</time>
      </trkpt>
      <trkpt lat="42.93225" lon="0.0268">
        <ele>2081.872314</ele>
        <time>2017-02-17T11:34:03Z</time>
      </trkpt>
      <trkpt lat="42.93209" lon="0.02671">
        <ele>2080.911133</ele>
        <time>2017-02-17T11:34:30Z</time>
      </trkpt>
      <trkpt lat="42.93211" lon="0.02654">
        <ele>2084.275635</ele>
        <time>2017-02-17T11:35:07Z</time>
      </trkpt>
      <trkpt lat="42.9321" lon="0.02641">
        <ele>2085.236816</ele>
        <time>2017-02-17T11:35:37Z</time>
      </trkpt>
      <trkpt lat="42.9321" lon="0.02635">
        <ele>2085.236816</ele>
        <time>2017-02-17T11:36:08Z</time>
      </trkpt>
      <trkpt lat="42.93188" lon="0.02643">
        <ele>2087.159424</ele>
        <time>2017-02-17T11:36:36Z</time>
      </trkpt>
      <trkpt lat="42.93179" lon="0.02647">
        <ele>2088.601563</ele>
        <time>2017-02-17T11:37:08Z</time>
      </trkpt>
      <trkpt lat="42.93166" lon="0.02646">
        <ele>2089.082031</ele>
        <time>2017-02-17T11:37:46Z</time>
      </trkpt>
      <trkpt lat="42.93149" lon="0.02644">
        <ele>2093.888916</ele>
        <time>2017-02-17T11:38:12Z</time>
      </trkpt>
      <trkpt lat="42.93143" lon="0.02643">
        <ele>2096.772705</ele>
        <time>2017-02-17T11:38:40Z</time>
      </trkpt>
      <trkpt lat="42.93141" lon="0.02648">
        <ele>2105.424561</ele>
        <time>2017-02-17T11:39:04Z</time>
      </trkpt>
      <trkpt lat="42.93114" lon="0.02654">
        <ele>2112.634521</ele>
        <time>2017-02-17T11:39:38Z</time>
      </trkpt>
      <trkpt lat="42.93109" lon="0.02645">
        <ele>2117.440918</ele>
        <time>2017-02-17T11:40:01Z</time>
      </trkpt>
      <trkpt lat="42.931" lon="0.02633">
        <ele>2123.689453</ele>
        <time>2017-02-17T11:40:26Z</time>
      </trkpt>
      <trkpt lat="42.93125" lon="0.02644">
        <ele>2139.55127</ele>
        <time>2017-02-17T11:40:44Z</time>
      </trkpt>
      <trkpt lat="42.93112" lon="0.02629">
        <ele>2157.335938</ele>
        <time>2017-02-17T11:41:08Z</time>
      </trkpt>
      <trkpt lat="42.93096" lon="0.02616">
        <ele>2173.197754</ele>
        <time>2017-02-17T11:41:32Z</time>
      </trkpt>
      <trkpt lat="42.93096" lon="0.02603">
        <ele>2178.00415</ele>
        <time>2017-02-17T11:41:54Z</time>
      </trkpt>
      <trkpt lat="42.93091" lon="0.02598">
        <ele>2186.175293</ele>
        <time>2017-02-17T11:42:14Z</time>
      </trkpt>
      <trkpt lat="42.93084" lon="0.02587">
        <ele>2192.424072</ele>
        <time>2017-02-17T11:42:34Z</time>
      </trkpt>
      <trkpt lat="42.9307" lon="0.02566">
        <ele>2203.479004</ele>
        <time>2017-02-17T11:43:05Z</time>
      </trkpt>
      <trkpt lat="42.93072" lon="0.02551">
        <ele>2207.324463</ele>
        <time>2017-02-17T11:43:25Z</time>
      </trkpt>
      <trkpt lat="42.93068" lon="0.02539">
        <ele>2208.766357</ele>
        <time>2017-02-17T11:43:43Z</time>
      </trkpt>
      <trkpt lat="42.9306" lon="0.02535">
        <ele>2210.208252</ele>
        <time>2017-02-17T11:44:05Z</time>
      </trkpt>
      <trkpt lat="42.93058" lon="0.02533">
        <ele>2210.208252</ele>
        <time>2017-02-17T11:44:08Z</time>
      </trkpt>
      <trkpt lat="42.93048" lon="0.02524">
        <ele>2215.014893</ele>
        <time>2017-02-17T11:44:30Z</time>
      </trkpt>
      <trkpt lat="42.93046" lon="0.02521">
        <ele>2214.53418</ele>
        <time>2017-02-17T11:44:48Z</time>
      </trkpt>
      <trkpt lat="42.93041" lon="0.02507">
        <ele>2215.014893</ele>
        <time>2017-02-17T11:45:14Z</time>
      </trkpt>
      <trkpt lat="42.93036" lon="0.02502">
        <ele>2215.976074</ele>
        <time>2017-02-17T11:45:33Z</time>
      </trkpt>
      <trkpt lat="42.93034" lon="0.02484">
        <ele>2218.379395</ele>
        <time>2017-02-17T11:45:55Z</time>
      </trkpt>
      <trkpt lat="42.93029" lon="0.02465">
        <ele>2219.34082</ele>
        <time>2017-02-17T11:46:19Z</time>
      </trkpt>
      <trkpt lat="42.93023" lon="0.02455">
        <ele>2219.34082</ele>
        <time>2017-02-17T11:46:38Z</time>
      </trkpt>
      <trkpt lat="42.93018" lon="0.02447">
        <ele>2221.744141</ele>
        <time>2017-02-17T11:46:56Z</time>
      </trkpt>
      <trkpt lat="42.93014" lon="0.02441">
        <ele>2218.860107</ele>
        <time>2017-02-17T11:47:15Z</time>
      </trkpt>
      <trkpt lat="42.93001" lon="0.02439">
        <ele>2223.666748</ele>
        <time>2017-02-17T11:47:34Z</time>
      </trkpt>
      <trkpt lat="42.93014" lon="0.02431">
        <ele>2223.666748</ele>
        <time>2017-02-17T11:49:50Z</time>
      </trkpt>
      <trkpt lat="42.93013" lon="0.02434">
        <ele>2224.147461</ele>
        <time>2017-02-17T11:50:00Z</time>
      </trkpt>
      <trkpt lat="42.93012" lon="0.02436">
        <ele>2227.031494</ele>
        <time>2017-02-17T11:50:32Z</time>
      </trkpt>
      <trkpt lat="42.93011" lon="0.02437">
        <ele>2227.992676</ele>
        <time>2017-02-17T11:50:53Z</time>
      </trkpt>
      <trkpt lat="42.93011" lon="0.02437">
        <ele>2227.031494</ele>
        <time>2017-02-17T11:52:58Z</time>
      </trkpt>
      <trkpt lat="42.93008" lon="0.02436">
        <ele>2231.837891</ele>
        <time>2017-02-17T11:53:15Z</time>
      </trkpt>
      <trkpt lat="42.92998" lon="0.0243">
        <ele>2240.970459</ele>
        <time>2017-02-17T11:53:32Z</time>
      </trkpt>
      <trkpt lat="42.92991" lon="0.02427">
        <ele>2246.257813</ele>
        <time>2017-02-17T11:53:55Z</time>
      </trkpt>
      <trkpt lat="42.92981" lon="0.02415">
        <ele>2257.312988</ele>
        <time>2017-02-17T11:54:19Z</time>
      </trkpt>
      <trkpt lat="42.92974" lon="0.02408">
        <ele>2271.732666</ele>
        <time>2017-02-17T11:54:42Z</time>
      </trkpt>
      <trkpt lat="42.92966" lon="0.02402">
        <ele>2282.307129</ele>
        <time>2017-02-17T11:55:07Z</time>
      </trkpt>
      <trkpt lat="42.92953" lon="0.02398">
        <ele>2284.22998</ele>
        <time>2017-02-17T11:55:33Z</time>
      </trkpt>
      <trkpt lat="42.92953" lon="0.02395">
        <ele>2286.633057</ele>
        <time>2017-02-17T11:55:55Z</time>
      </trkpt>
      <trkpt lat="42.92949" lon="0.02389">
        <ele>2291.439697</ele>
        <time>2017-02-17T11:56:26Z</time>
      </trkpt>
      <trkpt lat="42.92956" lon="0.02387">
        <ele>2294.323486</ele>
        <time>2017-02-17T11:56:39Z</time>
      </trkpt>
      <trkpt lat="42.92967" lon="0.02383">
        <ele>2291.92041</ele>
        <time>2017-02-17T11:57:02Z</time>
      </trkpt>
      <trkpt lat="42.92979" lon="0.02376">
        <ele>2292.881592</ele>
        <time>2017-02-17T11:57:28Z</time>
      </trkpt>
      <trkpt lat="42.92961" lon="0.02371">
        <ele>2300.572266</ele>
        <time>2017-02-17T11:57:47Z</time>
      </trkpt>
      <trkpt lat="42.92957" lon="0.02369">
        <ele>2303.937012</ele>
        <time>2017-02-17T11:58:00Z</time>
      </trkpt>
      <trkpt lat="42.9295" lon="0.02368">
        <ele>2304.41748</ele>
        <time>2017-02-17T11:58:14Z</time>
      </trkpt>
      <trkpt lat="42.92946" lon="0.02364">
        <ele>2305.378906</ele>
        <time>2017-02-17T11:58:29Z</time>
      </trkpt>
      <trkpt lat="42.9295" lon="0.02359">
        <ele>2303.456299</ele>
        <time>2017-02-17T11:58:48Z</time>
      </trkpt>
      <trkpt lat="42.92959" lon="0.02353">
        <ele>2303.937012</ele>
        <time>2017-02-17T11:59:13Z</time>
      </trkpt>
      <trkpt lat="42.92964" lon="0.02346">
        <ele>2304.898193</ele>
        <time>2017-02-17T11:59:37Z</time>
      </trkpt>
      <trkpt lat="42.92965" lon="0.02343">
        <ele>2304.898193</ele>
        <time>2017-02-17T11:59:53Z</time>
      </trkpt>
      <trkpt lat="42.9296" lon="0.02336">
        <ele>2307.301514</ele>
        <time>2017-02-17T12:00:11Z</time>
      </trkpt>
      <trkpt lat="42.92954" lon="0.0233">
        <ele>2314.030518</ele>
        <time>2017-02-17T12:00:34Z</time>
      </trkpt>
      <trkpt lat="42.92948" lon="0.02324">
        <ele>2316.914795</ele>
        <time>2017-02-17T12:00:53Z</time>
      </trkpt>
      <trkpt lat="42.92938" lon="0.02314">
        <ele>2313.549805</ele>
        <time>2017-02-17T12:01:08Z</time>
      </trkpt>
      <trkpt lat="42.92955" lon="0.02321">
        <ele>2316.434082</ele>
        <time>2017-02-17T12:01:28Z</time>
      </trkpt>
      <trkpt lat="42.92966" lon="0.02322">
        <ele>2320.279297</ele>
        <time>2017-02-17T12:01:53Z</time>
      </trkpt>
      <trkpt lat="42.92969" lon="0.02317">
        <ele>2318.356689</ele>
        <time>2017-02-17T12:02:20Z</time>
      </trkpt>
      <trkpt lat="42.92951" lon="0.02297">
        <ele>2325.566406</ele>
        <time>2017-02-17T12:02:52Z</time>
      </trkpt>
      <trkpt lat="42.92943" lon="0.02294">
        <ele>2329.411621</ele>
        <time>2017-02-17T12:03:20Z</time>
      </trkpt>
      <trkpt lat="42.92937" lon="0.02289">
        <ele>2329.411621</ele>
        <time>2017-02-17T12:03:42Z</time>
      </trkpt>
      <trkpt lat="42.92941" lon="0.02288">
        <ele>2330.373047</ele>
        <time>2017-02-17T12:04:02Z</time>
      </trkpt>
      <trkpt lat="42.92952" lon="0.02286">
        <ele>2331.334229</ele>
        <time>2017-02-17T12:04:24Z</time>
      </trkpt>
      <trkpt lat="42.92962" lon="0.02282">
        <ele>2333.737793</ele>
        <time>2017-02-17T12:04:45Z</time>
      </trkpt>
      <trkpt lat="42.92964" lon="0.02279">
        <ele>2334.218506</ele>
        <time>2017-02-17T12:05:08Z</time>
      </trkpt>
      <trkpt lat="42.92973" lon="0.02279">
        <ele>2337.102295</ele>
        <time>2017-02-17T12:05:25Z</time>
      </trkpt>
      <trkpt lat="42.92972" lon="0.02274">
        <ele>2337.583008</ele>
        <time>2017-02-17T12:05:43Z</time>
      </trkpt>
      <trkpt lat="42.92965" lon="0.02269">
        <ele>2339.505615</ele>
        <time>2017-02-17T12:05:55Z</time>
      </trkpt>
      <trkpt lat="42.92957" lon="0.02264">
        <ele>2342.389648</ele>
        <time>2017-02-17T12:06:13Z</time>
      </trkpt>
      <trkpt lat="42.92949" lon="0.02259">
        <ele>2345.273438</ele>
        <time>2017-02-17T12:06:27Z</time>
      </trkpt>
      <trkpt lat="42.92943" lon="0.02256">
        <ele>2350.080322</ele>
        <time>2017-02-17T12:06:44Z</time>
      </trkpt>
      <trkpt lat="42.92941" lon="0.02248">
        <ele>2353.444824</ele>
        <time>2017-02-17T12:07:05Z</time>
      </trkpt>
      <trkpt lat="42.92951" lon="0.02255">
        <ele>2354.406006</ele>
        <time>2017-02-17T12:07:26Z</time>
      </trkpt>
      <trkpt lat="42.92958" lon="0.02249">
        <ele>2356.328613</ele>
        <time>2017-02-17T12:07:44Z</time>
      </trkpt>
      <trkpt lat="42.92966" lon="0.02247">
        <ele>2358.251221</ele>
        <time>2017-02-17T12:08:04Z</time>
      </trkpt>
      <trkpt lat="42.92971" lon="0.02242">
        <ele>2360.173828</ele>
        <time>2017-02-17T12:08:18Z</time>
      </trkpt>
      <trkpt lat="42.92971" lon="0.02233">
        <ele>2361.135254</ele>
        <time>2017-02-17T12:08:40Z</time>
      </trkpt>
      <trkpt lat="42.92968" lon="0.02236">
        <ele>2363.057861</ele>
        <time>2017-02-17T12:08:56Z</time>
      </trkpt>
      <trkpt lat="42.9296" lon="0.02232">
        <ele>2364.980713</ele>
        <time>2017-02-17T12:09:16Z</time>
      </trkpt>
      <trkpt lat="42.92959" lon="0.02225">
        <ele>2365.941895</ele>
        <time>2017-02-17T12:09:36Z</time>
      </trkpt>
      <trkpt lat="42.92967" lon="0.02226">
        <ele>2367.864502</ele>
        <time>2017-02-17T12:09:58Z</time>
      </trkpt>
      <trkpt lat="42.92975" lon="0.02219">
        <ele>2368.345215</ele>
        <time>2017-02-17T12:10:17Z</time>
      </trkpt>
      <trkpt lat="42.92979" lon="0.02221">
        <ele>2369.787109</ele>
        <time>2017-02-17T12:10:29Z</time>
      </trkpt>
      <trkpt lat="42.92984" lon="0.02221">
        <ele>2368.825928</ele>
        <time>2017-02-17T12:10:47Z</time>
      </trkpt>
      <trkpt lat="42.9298" lon="0.02218">
        <ele>2370.748535</ele>
        <time>2017-02-17T12:11:09Z</time>
      </trkpt>
      <trkpt lat="42.92969" lon="0.02208">
        <ele>2374.59375</ele>
        <time>2017-02-17T12:11:36Z</time>
      </trkpt>
      <trkpt lat="42.92968" lon="0.02205">
        <ele>2378.919434</ele>
        <time>2017-02-17T12:11:58Z</time>
      </trkpt>
      <trkpt lat="42.92969" lon="0.02202">
        <ele>2379.880859</ele>
        <time>2017-02-17T12:12:16Z</time>
      </trkpt>
      <trkpt lat="42.92969" lon="0.02201">
        <ele>2380.361816</ele>
        <time>2017-02-17T12:13:07Z</time>
      </trkpt>
      <trkpt lat="42.92971" lon="0.02201">
        <ele>2379.880859</ele>
        <time>2017-02-17T12:13:54Z</time>
      </trkpt>
      <trkpt lat="42.92972" lon="0.02203">
        <ele>2379.880859</ele>
        <time>2017-02-17T12:14:11Z</time>
      </trkpt>
      <trkpt lat="42.92972" lon="0.02202">
        <ele>2379.880859</ele>
        <time>2017-02-17T12:17:40Z</time>
      </trkpt>
      <trkpt lat="42.92973" lon="0.02199">
        <ele>2382.764893</ele>
        <time>2017-02-17T12:17:55Z</time>
      </trkpt>
      <trkpt lat="42.92974" lon="0.02194">
        <ele>2380.842529</ele>
        <time>2017-02-17T12:18:12Z</time>
      </trkpt>
      <trkpt lat="42.92974" lon="0.02192">
        <ele>2381.803711</ele>
        <time>2017-02-17T12:18:28Z</time>
      </trkpt>
      <trkpt lat="42.92974" lon="0.02188">
        <ele>2380.842529</ele>
        <time>2017-02-17T12:18:44Z</time>
      </trkpt>
      <trkpt lat="42.92978" lon="0.02182">
        <ele>2380.361816</ele>
        <time>2017-02-17T12:19:03Z</time>
      </trkpt>
      <trkpt lat="42.92983" lon="0.02178">
        <ele>2380.842529</ele>
        <time>2017-02-17T12:19:20Z</time>
      </trkpt>
      <trkpt lat="42.92984" lon="0.02177">
        <ele>2381.322998</ele>
        <time>2017-02-17T12:19:47Z</time>
      </trkpt>
      <trkpt lat="42.92983" lon="0.02174">
        <ele>2382.284424</ele>
        <time>2017-02-17T12:19:58Z</time>
      </trkpt>
      <trkpt lat="42.92983" lon="0.02171">
        <ele>2383.245605</ele>
        <time>2017-02-17T12:20:16Z</time>
      </trkpt>
      <trkpt lat="42.92981" lon="0.0217">
        <ele>2383.245605</ele>
        <time>2017-02-17T12:20:29Z</time>
      </trkpt>
      <trkpt lat="42.92981" lon="0.02165">
        <ele>2380.842529</ele>
        <time>2017-02-17T12:20:45Z</time>
      </trkpt>
      <trkpt lat="42.92985" lon="0.02159">
        <ele>2381.803711</ele>
        <time>2017-02-17T12:20:59Z</time>
      </trkpt>
      <trkpt lat="42.92986" lon="0.02158">
        <ele>2383.726318</ele>
        <time>2017-02-17T12:21:17Z</time>
      </trkpt>
      <trkpt lat="42.92986" lon="0.02155">
        <ele>2383.726318</ele>
        <time>2017-02-17T12:21:30Z</time>
      </trkpt>
      <trkpt lat="42.92983" lon="0.02154">
        <ele>2383.245605</ele>
        <time>2017-02-17T12:21:44Z</time>
      </trkpt>
      <trkpt lat="42.92985" lon="0.02148">
        <ele>2381.322998</ele>
        <time>2017-02-17T12:21:57Z</time>
      </trkpt>
      <trkpt lat="42.92983" lon="0.02144">
        <ele>2380.842529</ele>
        <time>2017-02-17T12:22:15Z</time>
      </trkpt>
      <trkpt lat="42.92985" lon="0.02144">
        <ele>2383.245605</ele>
        <time>2017-02-17T12:22:32Z</time>
      </trkpt>
      <trkpt lat="42.92986" lon="0.02143">
        <ele>2385.168213</ele>
        <time>2017-02-17T12:22:45Z</time>
      </trkpt>
      <trkpt lat="42.92986" lon="0.02143">
        <ele>2386.610107</ele>
        <time>2017-02-17T12:22:58Z</time>
      </trkpt>
      <trkpt lat="42.92986" lon="0.02143">
        <ele>2388.052246</ele>
        <time>2017-02-17T12:23:10Z</time>
      </trkpt>
      <trkpt lat="42.92987" lon="0.0214">
        <ele>2390.455322</ele>
        <time>2017-02-17T12:23:31Z</time>
      </trkpt>
      <trkpt lat="42.92985" lon="0.02135">
        <ele>2392.378174</ele>
        <time>2017-02-17T12:23:52Z</time>
      </trkpt>
      <trkpt lat="42.92984" lon="0.02132">
        <ele>2393.339355</ele>
        <time>2017-02-17T12:24:12Z</time>
      </trkpt>
      <trkpt lat="42.92981" lon="0.02128">
        <ele>2393.820068</ele>
        <time>2017-02-17T12:24:29Z</time>
      </trkpt>
      <trkpt lat="42.92981" lon="0.02126">
        <ele>2394.78125</ele>
        <time>2017-02-17T12:24:46Z</time>
      </trkpt>
      <trkpt lat="42.92981" lon="0.02125">
        <ele>2396.704102</ele>
        <time>2017-02-17T12:25:12Z</time>
      </trkpt>
      <trkpt lat="42.92983" lon="0.02124">
        <ele>2401.991211</ele>
        <time>2017-02-17T12:25:35Z</time>
      </trkpt>
      <trkpt lat="42.92978" lon="0.02133">
        <ele>2407.759277</ele>
        <time>2017-02-17T12:25:52Z</time>
      </trkpt>
      <trkpt lat="42.92978" lon="0.02133">
        <ele>2410.162354</ele>
        <time>2017-02-17T12:26:19Z</time>
      </trkpt>
      <trkpt lat="42.92982" lon="0.02127">
        <ele>2417.372314</ele>
        <time>2017-02-17T12:27:00Z</time>
      </trkpt>
      <trkpt lat="42.92982" lon="0.02124">
        <ele>2421.698242</ele>
        <time>2017-02-17T12:27:22Z</time>
      </trkpt>
      <trkpt lat="42.92983" lon="0.02122">
        <ele>2425.543457</ele>
        <time>2017-02-17T12:27:40Z</time>
      </trkpt>
      <trkpt lat="42.92988" lon="0.02119">
        <ele>2434.67627</ele>
        <time>2017-02-17T12:28:02Z</time>
      </trkpt>
      <trkpt lat="42.92989" lon="0.02117">
        <ele>2438.040771</ele>
        <time>2017-02-17T12:28:25Z</time>
      </trkpt>
      <trkpt lat="42.92993" lon="0.02116">
        <ele>2442.366699</ele>
        <time>2017-02-17T12:28:42Z</time>
      </trkpt>
      <trkpt lat="42.92996" lon="0.02115">
        <ele>2445.731445</ele>
        <time>2017-02-17T12:29:06Z</time>
      </trkpt>
      <trkpt lat="42.92999" lon="0.02117">
        <ele>2448.134521</ele>
        <time>2017-02-17T12:29:20Z</time>
      </trkpt>
      <trkpt lat="42.93002" lon="0.02121">
        <ele>2450.057373</ele>
        <time>2017-02-17T12:29:44Z</time>
      </trkpt>
      <trkpt lat="42.93005" lon="0.02125">
        <ele>2452.941162</ele>
        <time>2017-02-17T12:29:59Z</time>
      </trkpt>
      <trkpt lat="42.93005" lon="0.02126">
        <ele>2453.421875</ele>
        <time>2017-02-17T12:30:27Z</time>
      </trkpt>
      <trkpt lat="42.93006" lon="0.02128">
        <ele>2454.383057</ele>
        <time>2017-02-17T12:30:41Z</time>
      </trkpt>
      <trkpt lat="42.93016" lon="0.0213">
        <ele>2460.151123</ele>
        <time>2017-02-17T12:31:01Z</time>
      </trkpt>
      <trkpt lat="42.93023" lon="0.02126">
        <ele>2462.07373</ele>
        <time>2017-02-17T12:31:32Z</time>
      </trkpt>
      <trkpt lat="42.93023" lon="0.02128">
        <ele>2463.035156</ele>
        <time>2017-02-17T12:32:05Z</time>
      </trkpt>
      <trkpt lat="42.93024" lon="0.02129">
        <ele>2462.554443</ele>
        <time>2017-02-17T12:32:46Z</time>
      </trkpt>
      <trkpt lat="42.93023" lon="0.02127">
        <ele>2460.631836</ele>
        <time>2017-02-17T12:33:06Z</time>
      </trkpt>
      <trkpt lat="42.93024" lon="0.02126">
        <ele>2460.631836</ele>
        <time>2017-02-17T12:36:51Z</time>
      </trkpt>
      <trkpt lat="42.93024" lon="0.02127">
        <ele>2460.151123</ele>
        <time>2017-02-17T12:37:06Z</time>
      </trkpt>
      <trkpt lat="42.93025" lon="0.02124">
        <ele>2460.631836</ele>
        <time>2017-02-17T12:42:12Z</time>
      </trkpt>
      <trkpt lat="42.93024" lon="0.02127">
        <ele>2459.670166</ele>
        <time>2017-02-17T12:44:44Z</time>
      </trkpt>
      <trkpt lat="42.93024" lon="0.02129">
        <ele>2457.26709</ele>
        <time>2017-02-17T12:48:54Z</time>
      </trkpt>
      <trkpt lat="42.93025" lon="0.02125">
        <ele>2458.228271</ele>
        <time>2017-02-17T12:50:57Z</time>
      </trkpt>
      <trkpt lat="42.93025" lon="0.02124">
        <ele>2458.228271</ele>
        <time>2017-02-17T12:52:04Z</time>
      </trkpt>
      <trkpt lat="42.93026" lon="0.02122">
        <ele>2457.747803</ele>
        <time>2017-02-17T12:54:51Z</time>
      </trkpt>
      <trkpt lat="42.93026" lon="0.02125">
        <ele>2457.26709</ele>
        <time>2017-02-17T12:56:22Z</time>
      </trkpt>
      <trkpt lat="42.93026" lon="0.02126">
        <ele>2457.747803</ele>
        <time>2017-02-17T13:00:53Z</time>
      </trkpt>
      <trkpt lat="42.93024" lon="0.02128">
        <ele>2457.747803</ele>
        <time>2017-02-17T13:09:23Z</time>
      </trkpt>
      <trkpt lat="42.93023" lon="0.02127">
        <ele>2457.26709</ele>
        <time>2017-02-17T13:10:43Z</time>
      </trkpt>
      <trkpt lat="42.93014" lon="0.02129">
        <ele>2456.305664</ele>
        <time>2017-02-17T13:10:52Z</time>
      </trkpt>
      <trkpt lat="42.93012" lon="0.02132">
        <ele>2455.824951</ele>
        <time>2017-02-17T13:11:09Z</time>
      </trkpt>
      <trkpt lat="42.93011" lon="0.0213">
        <ele>2454.86377</ele>
        <time>2017-02-17T13:12:14Z</time>
      </trkpt>
      <trkpt lat="42.93011" lon="0.02129">
        <ele>2456.305664</ele>
        <time>2017-02-17T13:13:11Z</time>
      </trkpt>
      <trkpt lat="42.93014" lon="0.02131">
        <ele>2455.344482</ele>
        <time>2017-02-17T13:13:34Z</time>
      </trkpt>
      <trkpt lat="42.93014" lon="0.0213">
        <ele>2454.86377</ele>
        <time>2017-02-17T13:14:36Z</time>
      </trkpt>
      <trkpt lat="42.93016" lon="0.02125">
        <ele>2452.941162</ele>
        <time>2017-02-17T13:15:00Z</time>
      </trkpt>
      <trkpt lat="42.93014" lon="0.02121">
        <ele>2452.460449</ele>
        <time>2017-02-17T13:15:53Z</time>
      </trkpt>
      <trkpt lat="42.93013" lon="0.0212">
        <ele>2451.979736</ele>
        <time>2017-02-17T13:15:56Z</time>
      </trkpt>
      <trkpt lat="42.93007" lon="0.0212">
        <ele>2451.499268</ele>
        <time>2017-02-17T13:16:00Z</time>
      </trkpt>
      <trkpt lat="42.92999" lon="0.02117">
        <ele>2450.057373</ele>
        <time>2017-02-17T13:16:16Z</time>
      </trkpt>
      <trkpt lat="42.92994" lon="0.0212">
        <ele>2446.692627</ele>
        <time>2017-02-17T13:16:37Z</time>
      </trkpt>
      <trkpt lat="42.92991" lon="0.02121">
        <ele>2444.77002</ele>
        <time>2017-02-17T13:16:49Z</time>
      </trkpt>
      <trkpt lat="42.92987" lon="0.02121">
        <ele>2444.289307</ele>
        <time>2017-02-17T13:16:54Z</time>
      </trkpt>
      <trkpt lat="42.92982" lon="0.02128">
        <ele>2440.443848</ele>
        <time>2017-02-17T13:17:06Z</time>
      </trkpt>
      <trkpt lat="42.92983" lon="0.02133">
        <ele>2438.040771</ele>
        <time>2017-02-17T13:17:21Z</time>
      </trkpt>
      <trkpt lat="42.92983" lon="0.02133">
        <ele>2438.040771</ele>
        <time>2017-02-17T13:17:22Z</time>
      </trkpt>
      <trkpt lat="42.92982" lon="0.02135">
        <ele>2436.598633</ele>
        <time>2017-02-17T13:17:24Z</time>
      </trkpt>
      <trkpt lat="42.92984" lon="0.0214">
        <ele>2435.156738</ele>
        <time>2017-02-17T13:17:36Z</time>
      </trkpt>
      <trkpt lat="42.92983" lon="0.0214">
        <ele>2435.156738</ele>
        <time>2017-02-17T13:17:45Z</time>
      </trkpt>
      <trkpt lat="42.92976" lon="0.02146">
        <ele>2429.869629</ele>
        <time>2017-02-17T13:17:57Z</time>
      </trkpt>
      <trkpt lat="42.92976" lon="0.02146">
        <ele>2429.388916</ele>
        <time>2017-02-17T13:17:59Z</time>
      </trkpt>
      <trkpt lat="42.92967" lon="0.02145">
        <ele>2425.062744</ele>
        <time>2017-02-17T13:18:08Z</time>
      </trkpt>
      <trkpt lat="42.92958" lon="0.02151">
        <ele>2421.217529</ele>
        <time>2017-02-17T13:18:15Z</time>
      </trkpt>
      <trkpt lat="42.92956" lon="0.02155">
        <ele>2418.33374</ele>
        <time>2017-02-17T13:18:24Z</time>
      </trkpt>
      <trkpt lat="42.9295" lon="0.02161">
        <ele>2415.93042</ele>
        <time>2017-02-17T13:18:34Z</time>
      </trkpt>
      <trkpt lat="42.9295" lon="0.02162">
        <ele>2414.007813</ele>
        <time>2017-02-17T13:18:40Z</time>
      </trkpt>
      <trkpt lat="42.92947" lon="0.02171">
        <ele>2410.643066</ele>
        <time>2017-02-17T13:18:46Z</time>
      </trkpt>
      <trkpt lat="42.92944" lon="0.02175">
        <ele>2408.720459</ele>
        <time>2017-02-17T13:18:51Z</time>
      </trkpt>
      <trkpt lat="42.92936" lon="0.02164">
        <ele>2406.797852</ele>
        <time>2017-02-17T13:18:59Z</time>
      </trkpt>
      <trkpt lat="42.92935" lon="0.02174">
        <ele>2403.914063</ele>
        <time>2017-02-17T13:19:08Z</time>
      </trkpt>
      <trkpt lat="42.92935" lon="0.02175">
        <ele>2403.914063</ele>
        <time>2017-02-17T13:19:11Z</time>
      </trkpt>
      <trkpt lat="42.92931" lon="0.02178">
        <ele>2402.952637</ele>
        <time>2017-02-17T13:19:22Z</time>
      </trkpt>
      <trkpt lat="42.92925" lon="0.0218">
        <ele>2402.471924</ele>
        <time>2017-02-17T13:19:31Z</time>
      </trkpt>
      <trkpt lat="42.92925" lon="0.02189">
        <ele>2399.107422</ele>
        <time>2017-02-17T13:19:45Z</time>
      </trkpt>
      <trkpt lat="42.92923" lon="0.02195">
        <ele>2394.78125</ele>
        <time>2017-02-17T13:19:50Z</time>
      </trkpt>
      <trkpt lat="42.92922" lon="0.02198">
        <ele>2393.339355</ele>
        <time>2017-02-17T13:19:55Z</time>
      </trkpt>
      <trkpt lat="42.92912" lon="0.02207">
        <ele>2387.09082</ele>
        <time>2017-02-17T13:20:02Z</time>
      </trkpt>
      <trkpt lat="42.92896" lon="0.02218">
        <ele>2383.245605</ele>
        <time>2017-02-17T13:20:07Z</time>
      </trkpt>
      <trkpt lat="42.92881" lon="0.02237">
        <ele>2378.438965</ele>
        <time>2017-02-17T13:20:14Z</time>
      </trkpt>
      <trkpt lat="42.92884" lon="0.0224">
        <ele>2376.035645</ele>
        <time>2017-02-17T13:20:49Z</time>
      </trkpt>
      <trkpt lat="42.92892" lon="0.02256">
        <ele>2372.671143</ele>
        <time>2017-02-17T13:21:00Z</time>
      </trkpt>
      <trkpt lat="42.92898" lon="0.0226">
        <ele>2369.306641</ele>
        <time>2017-02-17T13:21:05Z</time>
      </trkpt>
      <trkpt lat="42.92893" lon="0.02269">
        <ele>2367.383789</ele>
        <time>2017-02-17T13:21:11Z</time>
      </trkpt>
      <trkpt lat="42.92895" lon="0.02277">
        <ele>2364.980713</ele>
        <time>2017-02-17T13:21:16Z</time>
      </trkpt>
      <trkpt lat="42.92894" lon="0.02288">
        <ele>2362.577148</ele>
        <time>2017-02-17T13:21:25Z</time>
      </trkpt>
      <trkpt lat="42.92894" lon="0.02289">
        <ele>2363.057861</ele>
        <time>2017-02-17T13:21:35Z</time>
      </trkpt>
      <trkpt lat="42.92893" lon="0.02297">
        <ele>2363.057861</ele>
        <time>2017-02-17T13:21:39Z</time>
      </trkpt>
      <trkpt lat="42.92903" lon="0.02298">
        <ele>2361.615967</ele>
        <time>2017-02-17T13:21:43Z</time>
      </trkpt>
      <trkpt lat="42.92903" lon="0.02306">
        <ele>2360.654541</ele>
        <time>2017-02-17T13:21:45Z</time>
      </trkpt>
      <trkpt lat="42.92897" lon="0.02324">
        <ele>2357.290039</ele>
        <time>2017-02-17T13:21:51Z</time>
      </trkpt>
      <trkpt lat="42.92906" lon="0.02325">
        <ele>2355.8479</ele>
        <time>2017-02-17T13:21:55Z</time>
      </trkpt>
      <trkpt lat="42.92911" lon="0.0232">
        <ele>2355.367432</ele>
        <time>2017-02-17T13:22:11Z</time>
      </trkpt>
      <trkpt lat="42.92914" lon="0.02322">
        <ele>2354.406006</ele>
        <time>2017-02-17T13:22:13Z</time>
      </trkpt>
      <trkpt lat="42.92915" lon="0.02349">
        <ele>2347.676758</ele>
        <time>2017-02-17T13:22:21Z</time>
      </trkpt>
      <trkpt lat="42.92912" lon="0.02368">
        <ele>2341.908936</ele>
        <time>2017-02-17T13:22:28Z</time>
      </trkpt>
      <trkpt lat="42.92916" lon="0.02369">
        <ele>2338.063721</ele>
        <time>2017-02-17T13:22:30Z</time>
      </trkpt>
      <trkpt lat="42.92908" lon="0.02375">
        <ele>2336.621582</ele>
        <time>2017-02-17T13:22:43Z</time>
      </trkpt>
      <trkpt lat="42.92908" lon="0.02376">
        <ele>2336.141113</ele>
        <time>2017-02-17T13:22:55Z</time>
      </trkpt>
      <trkpt lat="42.92923" lon="0.02389">
        <ele>2335.179688</ele>
        <time>2017-02-17T13:23:00Z</time>
      </trkpt>
      <trkpt lat="42.92955" lon="0.02411">
        <ele>2329.411621</ele>
        <time>2017-02-17T13:23:09Z</time>
      </trkpt>
      <trkpt lat="42.92968" lon="0.02423">
        <ele>2327.489014</ele>
        <time>2017-02-17T13:23:12Z</time>
      </trkpt>
      <trkpt lat="42.92997" lon="0.02443">
        <ele>2324.605225</ele>
        <time>2017-02-17T13:23:16Z</time>
      </trkpt>
      <trkpt lat="42.93037" lon="0.0247">
        <ele>2317.875977</ele>
        <time>2017-02-17T13:23:22Z</time>
      </trkpt>
      <trkpt lat="42.93054" lon="0.02486">
        <ele>2310.185303</ele>
        <time>2017-02-17T13:23:25Z</time>
      </trkpt>
      <trkpt lat="42.93063" lon="0.02513">
        <ele>2303.456299</ele>
        <time>2017-02-17T13:23:32Z</time>
      </trkpt>
      <trkpt lat="42.93063" lon="0.02509">
        <ele>2301.052979</ele>
        <time>2017-02-17T13:23:38Z</time>
      </trkpt>
      <trkpt lat="42.93074" lon="0.02534">
        <ele>2297.20752</ele>
        <time>2017-02-17T13:23:46Z</time>
      </trkpt>
      <trkpt lat="42.93081" lon="0.02544">
        <ele>2295.765625</ele>
        <time>2017-02-17T13:23:48Z</time>
      </trkpt>
      <trkpt lat="42.93106" lon="0.02559">
        <ele>2291.92041</ele>
        <time>2017-02-17T13:23:52Z</time>
      </trkpt>
      <trkpt lat="42.93128" lon="0.02599">
        <ele>2284.710693</ele>
        <time>2017-02-17T13:24:01Z</time>
      </trkpt>
      <trkpt lat="42.93145" lon="0.02632">
        <ele>2277.981201</ele>
        <time>2017-02-17T13:24:07Z</time>
      </trkpt>
      <trkpt lat="42.9316" lon="0.0264">
        <ele>2264.041992</ele>
        <time>2017-02-17T13:24:16Z</time>
      </trkpt>
      <trkpt lat="42.9316" lon="0.02638">
        <ele>2261.638916</ele>
        <time>2017-02-17T13:24:23Z</time>
      </trkpt>
      <trkpt lat="42.93161" lon="0.02643">
        <ele>2261.158203</ele>
        <time>2017-02-17T13:24:26Z</time>
      </trkpt>
      <trkpt lat="42.93154" lon="0.02648">
        <ele>2259.716064</ele>
        <time>2017-02-17T13:24:29Z</time>
      </trkpt>
      <trkpt lat="42.93163" lon="0.02665">
        <ele>2258.27417</ele>
        <time>2017-02-17T13:24:33Z</time>
      </trkpt>
      <trkpt lat="42.93188" lon="0.02678">
        <ele>2251.544922</ele>
        <time>2017-02-17T13:24:39Z</time>
      </trkpt>
      <trkpt lat="42.93192" lon="0.02679">
        <ele>2246.738281</ele>
        <time>2017-02-17T13:24:48Z</time>
      </trkpt>
      <trkpt lat="42.93191" lon="0.02679">
        <ele>2246.257813</ele>
        <time>2017-02-17T13:24:50Z</time>
      </trkpt>
      <trkpt lat="42.93189" lon="0.0269">
        <ele>2242.893066</ele>
        <time>2017-02-17T13:24:56Z</time>
      </trkpt>
      <trkpt lat="42.93182" lon="0.02686">
        <ele>2237.125244</ele>
        <time>2017-02-17T13:25:19Z</time>
      </trkpt>
      <trkpt lat="42.93182" lon="0.02682">
        <ele>2233.760498</ele>
        <time>2017-02-17T13:25:47Z</time>
      </trkpt>
      <trkpt lat="42.93173" lon="0.02709">
        <ele>2228.473389</ele>
        <time>2017-02-17T13:26:02Z</time>
      </trkpt>
      <trkpt lat="42.93172" lon="0.0271">
        <ele>2223.666748</ele>
        <time>2017-02-17T13:26:12Z</time>
      </trkpt>
      <trkpt lat="42.93169" lon="0.02711">
        <ele>2218.860107</ele>
        <time>2017-02-17T13:26:45Z</time>
      </trkpt>
      <trkpt lat="42.93164" lon="0.02711">
        <ele>2215.014893</ele>
        <time>2017-02-17T13:27:48Z</time>
      </trkpt>
      <trkpt lat="42.93163" lon="0.02713">
        <ele>2214.53418</ele>
        <time>2017-02-17T13:28:16Z</time>
      </trkpt>
      <trkpt lat="42.9316" lon="0.02709">
        <ele>2213.092285</ele>
        <time>2017-02-17T13:28:48Z</time>
      </trkpt>
      <trkpt lat="42.9316" lon="0.0271">
        <ele>2213.092285</ele>
        <time>2017-02-17T13:29:25Z</time>
      </trkpt>
      <trkpt lat="42.93163" lon="0.02708">
        <ele>2213.092285</ele>
        <time>2017-02-17T13:29:44Z</time>
      </trkpt>
      <trkpt lat="42.93162" lon="0.02708">
        <ele>2211.650391</ele>
        <time>2017-02-17T13:31:06Z</time>
      </trkpt>
      <trkpt lat="42.9316" lon="0.027">
        <ele>2208.285645</ele>
        <time>2017-02-17T13:32:13Z</time>
      </trkpt>
      <trkpt lat="42.93165" lon="0.02686">
        <ele>2205.882324</ele>
        <time>2017-02-17T13:32:27Z</time>
      </trkpt>
      <trkpt lat="42.93166" lon="0.02685">
        <ele>2205.401855</ele>
        <time>2017-02-17T13:32:29Z</time>
      </trkpt>
      <trkpt lat="42.93165" lon="0.02683">
        <ele>2204.44043</ele>
        <time>2017-02-17T13:32:35Z</time>
      </trkpt>
      <trkpt lat="42.93166" lon="0.02683">
        <ele>2203.479004</ele>
        <time>2017-02-17T13:32:42Z</time>
      </trkpt>
      <trkpt lat="42.93173" lon="0.02683">
        <ele>2202.036865</ele>
        <time>2017-02-17T13:32:52Z</time>
      </trkpt>
      <trkpt lat="42.93187" lon="0.02696">
        <ele>2200.594971</ele>
        <time>2017-02-17T13:32:57Z</time>
      </trkpt>
      <trkpt lat="42.9319" lon="0.02693">
        <ele>2200.594971</ele>
        <time>2017-02-17T13:32:59Z</time>
      </trkpt>
      <trkpt lat="42.93196" lon="0.02689">
        <ele>2199.153076</ele>
        <time>2017-02-17T13:33:12Z</time>
      </trkpt>
      <trkpt lat="42.93197" lon="0.02688">
        <ele>2198.672363</ele>
        <time>2017-02-17T13:34:24Z</time>
      </trkpt>
      <trkpt lat="42.93197" lon="0.02689">
        <ele>2198.672363</ele>
        <time>2017-02-17T13:36:55Z</time>
      </trkpt>
      <trkpt lat="42.932" lon="0.02694">
        <ele>2197.711182</ele>
        <time>2017-02-17T13:37:03Z</time>
      </trkpt>
      <trkpt lat="42.932" lon="0.02695">
        <ele>2197.711182</ele>
        <time>2017-02-17T13:37:55Z</time>
      </trkpt>
      <trkpt lat="42.93207" lon="0.02697">
        <ele>2193.385254</ele>
        <time>2017-02-17T13:38:01Z</time>
      </trkpt>
      <trkpt lat="42.93217" lon="0.02687">
        <ele>2190.020752</ele>
        <time>2017-02-17T13:38:06Z</time>
      </trkpt>
      <trkpt lat="42.93216" lon="0.027">
        <ele>2180.407471</ele>
        <time>2017-02-17T13:38:10Z</time>
      </trkpt>
      <trkpt lat="42.93223" lon="0.02693">
        <ele>2178.484863</ele>
        <time>2017-02-17T13:38:15Z</time>
      </trkpt>
      <trkpt lat="42.93231" lon="0.02701">
        <ele>2177.042969</ele>
        <time>2017-02-17T13:38:19Z</time>
      </trkpt>
      <trkpt lat="42.93239" lon="0.02702">
        <ele>2174.158936</ele>
        <time>2017-02-17T13:38:26Z</time>
      </trkpt>
      <trkpt lat="42.93247" lon="0.02694">
        <ele>2170.794189</ele>
        <time>2017-02-17T13:39:21Z</time>
      </trkpt>
      <trkpt lat="42.93252" lon="0.02707">
        <ele>2167.429443</ele>
        <time>2017-02-17T13:39:25Z</time>
      </trkpt>
      <trkpt lat="42.93254" lon="0.02725">
        <ele>2164.064941</ele>
        <time>2017-02-17T13:39:29Z</time>
      </trkpt>
      <trkpt lat="42.93261" lon="0.02722">
        <ele>2158.297119</ele>
        <time>2017-02-17T13:39:34Z</time>
      </trkpt>
      <trkpt lat="42.9327" lon="0.02708">
        <ele>2154.45166</ele>
        <time>2017-02-17T13:39:38Z</time>
      </trkpt>
      <trkpt lat="42.93278" lon="0.02722">
        <ele>2151.087158</ele>
        <time>2017-02-17T13:39:42Z</time>
      </trkpt>
      <trkpt lat="42.93287" lon="0.02719">
        <ele>2146.76123</ele>
        <time>2017-02-17T13:39:47Z</time>
      </trkpt>
      <trkpt lat="42.93299" lon="0.02724">
        <ele>2142.916016</ele>
        <time>2017-02-17T13:39:51Z</time>
      </trkpt>
      <trkpt lat="42.93311" lon="0.02735">
        <ele>2137.628662</ele>
        <time>2017-02-17T13:39:56Z</time>
      </trkpt>
      <trkpt lat="42.93323" lon="0.02732">
        <ele>2132.341553</ele>
        <time>2017-02-17T13:40:02Z</time>
      </trkpt>
      <trkpt lat="42.93328" lon="0.0273">
        <ele>2129.938232</ele>
        <time>2017-02-17T13:40:04Z</time>
      </trkpt>
      <trkpt lat="42.9333" lon="0.02743">
        <ele>2128.015625</ele>
        <time>2017-02-17T13:40:08Z</time>
      </trkpt>
      <trkpt lat="42.93348" lon="0.02763">
        <ele>2119.844238</ele>
        <time>2017-02-17T13:40:15Z</time>
      </trkpt>
      <trkpt lat="42.93352" lon="0.02765">
        <ele>2118.883057</ele>
        <time>2017-02-17T13:40:16Z</time>
      </trkpt>
      <trkpt lat="42.93353" lon="0.02767">
        <ele>2116.479736</ele>
        <time>2017-02-17T13:40:23Z</time>
      </trkpt>
      <trkpt lat="42.93356" lon="0.02787">
        <ele>2111.192627</ele>
        <time>2017-02-17T13:40:29Z</time>
      </trkpt>
      <trkpt lat="42.93354" lon="0.028">
        <ele>2108.308594</ele>
        <time>2017-02-17T13:40:32Z</time>
      </trkpt>
      <trkpt lat="42.93355" lon="0.02829">
        <ele>2104.463135</ele>
        <time>2017-02-17T13:40:38Z</time>
      </trkpt>
      <trkpt lat="42.93365" lon="0.0285">
        <ele>2098.695313</ele>
        <time>2017-02-17T13:40:44Z</time>
      </trkpt>
      <trkpt lat="42.93378" lon="0.02876">
        <ele>2091.485352</ele>
        <time>2017-02-17T13:40:50Z</time>
      </trkpt>
      <trkpt lat="42.93378" lon="0.02885">
        <ele>2090.043457</ele>
        <time>2017-02-17T13:40:52Z</time>
      </trkpt>
      <trkpt lat="42.93381" lon="0.0291">
        <ele>2084.756348</ele>
        <time>2017-02-17T13:40:57Z</time>
      </trkpt>
      <trkpt lat="42.93371" lon="0.0294">
        <ele>2077.065918</ele>
        <time>2017-02-17T13:41:03Z</time>
      </trkpt>
      <trkpt lat="42.93373" lon="0.02941">
        <ele>2073.220459</ele>
        <time>2017-02-17T13:41:16Z</time>
      </trkpt>
      <trkpt lat="42.93374" lon="0.02941">
        <ele>2073.220459</ele>
        <time>2017-02-17T13:41:29Z</time>
      </trkpt>
      <trkpt lat="42.93378" lon="0.02936">
        <ele>2072.739746</ele>
        <time>2017-02-17T13:41:32Z</time>
      </trkpt>
      <trkpt lat="42.93381" lon="0.02948">
        <ele>2070.817139</ele>
        <time>2017-02-17T13:41:36Z</time>
      </trkpt>
      <trkpt lat="42.93396" lon="0.02965">
        <ele>2066.491211</ele>
        <time>2017-02-17T13:41:43Z</time>
      </trkpt>
      <trkpt lat="42.93408" lon="0.02979">
        <ele>2063.607178</ele>
        <time>2017-02-17T13:41:48Z</time>
      </trkpt>
      <trkpt lat="42.93415" lon="0.03004">
        <ele>2061.204102</ele>
        <time>2017-02-17T13:41:53Z</time>
      </trkpt>
      <trkpt lat="42.93435" lon="0.03016">
        <ele>2057.358643</ele>
        <time>2017-02-17T13:41:59Z</time>
      </trkpt>
      <trkpt lat="42.93455" lon="0.03021">
        <ele>2054.474609</ele>
        <time>2017-02-17T13:42:04Z</time>
      </trkpt>
      <trkpt lat="42.93479" lon="0.03024">
        <ele>2051.59082</ele>
        <time>2017-02-17T13:42:09Z</time>
      </trkpt>
      <trkpt lat="42.93515" lon="0.03015">
        <ele>2046.303711</ele>
        <time>2017-02-17T13:42:17Z</time>
      </trkpt>
      <trkpt lat="42.93529" lon="0.03022">
        <ele>2044.380859</ele>
        <time>2017-02-17T13:42:20Z</time>
      </trkpt>
      <trkpt lat="42.93545" lon="0.03019">
        <ele>2041.977539</ele>
        <time>2017-02-17T13:42:23Z</time>
      </trkpt>
      <trkpt lat="42.93557" lon="0.03035">
        <ele>2039.093506</ele>
        <time>2017-02-17T13:42:27Z</time>
      </trkpt>
      <trkpt lat="42.93557" lon="0.03035">
        <ele>2035.729004</ele>
        <time>2017-02-17T13:42:31Z</time>
      </trkpt>
      <trkpt lat="42.93566" lon="0.03039">
        <ele>2031.403076</ele>
        <time>2017-02-17T13:42:37Z</time>
      </trkpt>
      <trkpt lat="42.93568" lon="0.03038">
        <ele>2029.961182</ele>
        <time>2017-02-17T13:42:54Z</time>
      </trkpt>
      <trkpt lat="42.93573" lon="0.03032">
        <ele>2029.961182</ele>
        <time>2017-02-17T13:42:58Z</time>
      </trkpt>
      <trkpt lat="42.9358" lon="0.03039">
        <ele>2029.961182</ele>
        <time>2017-02-17T13:43:01Z</time>
      </trkpt>
      <trkpt lat="42.93604" lon="0.0302">
        <ele>2028.519287</ele>
        <time>2017-02-17T13:43:06Z</time>
      </trkpt>
      <trkpt lat="42.93625" lon="0.02996">
        <ele>2027.077148</ele>
        <time>2017-02-17T13:43:10Z</time>
      </trkpt>
      <trkpt lat="42.93654" lon="0.02972">
        <ele>2025.63501</ele>
        <time>2017-02-17T13:43:15Z</time>
      </trkpt>
      <trkpt lat="42.93697" lon="0.0294">
        <ele>2021.309082</ele>
        <time>2017-02-17T13:43:22Z</time>
      </trkpt>
      <trkpt lat="42.93725" lon="0.02943">
        <ele>2018.425293</ele>
        <time>2017-02-17T13:43:25Z</time>
      </trkpt>
      <trkpt lat="42.93737" lon="0.02937">
        <ele>2016.983398</ele>
        <time>2017-02-17T13:43:27Z</time>
      </trkpt>
      <trkpt lat="42.93759" lon="0.02923">
        <ele>2013.618652</ele>
        <time>2017-02-17T13:43:31Z</time>
      </trkpt>
      <trkpt lat="42.93789" lon="0.02918">
        <ele>2009.773193</ele>
        <time>2017-02-17T13:43:35Z</time>
      </trkpt>
      <trkpt lat="42.93817" lon="0.02922">
        <ele>2006.408691</ele>
        <time>2017-02-17T13:43:39Z</time>
      </trkpt>
      <trkpt lat="42.93868" lon="0.02965">
        <ele>1997.75708</ele>
        <time>2017-02-17T13:43:48Z</time>
      </trkpt>
      <trkpt lat="42.93874" lon="0.02967">
        <ele>1996.795654</ele>
        <time>2017-02-17T13:43:49Z</time>
      </trkpt>
      <trkpt lat="42.93888" lon="0.0297">
        <ele>1994.872803</ele>
        <time>2017-02-17T13:43:53Z</time>
      </trkpt>
      <trkpt lat="42.93898" lon="0.02949">
        <ele>1991.989014</ele>
        <time>2017-02-17T13:44:03Z</time>
      </trkpt>
      <trkpt lat="42.93907" lon="0.02951">
        <ele>1991.989014</ele>
        <time>2017-02-17T13:44:06Z</time>
      </trkpt>
      <trkpt lat="42.93933" lon="0.02977">
        <ele>1991.508301</ele>
        <time>2017-02-17T13:44:12Z</time>
      </trkpt>
      <trkpt lat="42.9398" lon="0.02998">
        <ele>1988.624512</ele>
        <time>2017-02-17T13:44:17Z</time>
      </trkpt>
      <trkpt lat="42.93996" lon="0.03005">
        <ele>1987.663086</ele>
        <time>2017-02-17T13:44:19Z</time>
      </trkpt>
      <trkpt lat="42.94007" lon="0.03003">
        <ele>1986.70166</ele>
        <time>2017-02-17T13:44:22Z</time>
      </trkpt>
      <trkpt lat="42.9401" lon="0.03004">
        <ele>1985.259766</ele>
        <time>2017-02-17T13:44:37Z</time>
      </trkpt>
      <trkpt lat="42.94014" lon="0.03006">
        <ele>1985.740479</ele>
        <time>2017-02-17T13:45:01Z</time>
      </trkpt>
      <trkpt lat="42.94025" lon="0.02999">
        <ele>1985.259766</ele>
        <time>2017-02-17T13:45:04Z</time>
      </trkpt>
      <trkpt lat="42.94057" lon="0.03004">
        <ele>1983.817871</ele>
        <time>2017-02-17T13:45:09Z</time>
      </trkpt>
      <trkpt lat="42.9406" lon="0.03001">
        <ele>1983.817871</ele>
        <time>2017-02-17T13:45:10Z</time>
      </trkpt>
      <trkpt lat="42.94093" lon="0.03">
        <ele>1980.453369</ele>
        <time>2017-02-17T13:45:16Z</time>
      </trkpt>
      <trkpt lat="42.94092" lon="0.03007">
        <ele>1980.453369</ele>
        <time>2017-02-17T13:45:17Z</time>
      </trkpt>
      <trkpt lat="42.94109" lon="0.03011">
        <ele>1978.049805</ele>
        <time>2017-02-17T13:45:22Z</time>
      </trkpt>
      <trkpt lat="42.94123" lon="0.03004">
        <ele>1975.646484</ele>
        <time>2017-02-17T13:45:26Z</time>
      </trkpt>
      <trkpt lat="42.9415" lon="0.0301">
        <ele>1971.320557</ele>
        <time>2017-02-17T13:45:32Z</time>
      </trkpt>
      <trkpt lat="42.94151" lon="0.03016">
        <ele>1971.320557</ele>
        <time>2017-02-17T13:45:33Z</time>
      </trkpt>
      <trkpt lat="42.94151" lon="0.03011">
        <ele>1969.878662</ele>
        <time>2017-02-17T13:45:45Z</time>
      </trkpt>
      <trkpt lat="42.9415" lon="0.03011">
        <ele>1969.398193</ele>
        <time>2017-02-17T13:46:05Z</time>
      </trkpt>
      <trkpt lat="42.94156" lon="0.03007">
        <ele>1968.436768</ele>
        <time>2017-02-17T13:46:08Z</time>
      </trkpt>
      <trkpt lat="42.94179" lon="0.03">
        <ele>1963.629883</ele>
        <time>2017-02-17T13:46:13Z</time>
      </trkpt>
      <trkpt lat="42.94192" lon="0.03007">
        <ele>1961.70752</ele>
        <time>2017-02-17T13:46:17Z</time>
      </trkpt>
      <trkpt lat="42.94209" lon="0.03013">
        <ele>1959.784668</ele>
        <time>2017-02-17T13:46:21Z</time>
      </trkpt>
      <trkpt lat="42.94228" lon="0.03009">
        <ele>1957.381592</ele>
        <time>2017-02-17T13:46:25Z</time>
      </trkpt>
      <trkpt lat="42.94242" lon="0.03019">
        <ele>1953.536377</ele>
        <time>2017-02-17T13:46:28Z</time>
      </trkpt>
      <trkpt lat="42.94244" lon="0.03012">
        <ele>1952.574951</ele>
        <time>2017-02-17T13:46:29Z</time>
      </trkpt>
      <trkpt lat="42.94264" lon="0.03043">
        <ele>1945.845703</ele>
        <time>2017-02-17T13:46:36Z</time>
      </trkpt>
      <trkpt lat="42.94274" lon="0.03032">
        <ele>1939.116455</ele>
        <time>2017-02-17T13:46:41Z</time>
      </trkpt>
      <trkpt lat="42.94279" lon="0.03024">
        <ele>1934.790771</ele>
        <time>2017-02-17T13:46:45Z</time>
      </trkpt>
      <trkpt lat="42.9428" lon="0.0303">
        <ele>1933.829346</ele>
        <time>2017-02-17T13:46:56Z</time>
      </trkpt>
      <trkpt lat="42.94284" lon="0.03041">
        <ele>1932.86792</ele>
        <time>2017-02-17T13:47:00Z</time>
      </trkpt>
      <trkpt lat="42.94295" lon="0.03058">
        <ele>1924.696777</ele>
        <time>2017-02-17T13:47:09Z</time>
      </trkpt>
      <trkpt lat="42.94295" lon="0.03058">
        <ele>1924.696777</ele>
        <time>2017-02-17T13:47:12Z</time>
      </trkpt>
      <trkpt lat="42.94299" lon="0.03043">
        <ele>1922.293457</ele>
        <time>2017-02-17T13:47:16Z</time>
      </trkpt>
      <trkpt lat="42.94306" lon="0.03031">
        <ele>1917.967529</ele>
        <time>2017-02-17T13:47:20Z</time>
      </trkpt>
      <trkpt lat="42.94321" lon="0.03003">
        <ele>1913.641357</ele>
        <time>2017-02-17T13:47:25Z</time>
      </trkpt>
      <trkpt lat="42.94345" lon="0.02965">
        <ele>1898.740967</ele>
        <time>2017-02-17T13:47:37Z</time>
      </trkpt>
      <trkpt lat="42.94368" lon="0.0295">
        <ele>1892.492676</ele>
        <time>2017-02-17T13:47:41Z</time>
      </trkpt>
      <trkpt lat="42.94388" lon="0.02929">
        <ele>1889.608643</ele>
        <time>2017-02-17T13:47:45Z</time>
      </trkpt>
      <trkpt lat="42.94413" lon="0.02913">
        <ele>1885.282715</ele>
        <time>2017-02-17T13:47:49Z</time>
      </trkpt>
      <trkpt lat="42.94455" lon="0.02866">
        <ele>1869.421143</ele>
        <time>2017-02-17T13:47:57Z</time>
      </trkpt>
      <trkpt lat="42.94477" lon="0.02832">
        <ele>1855.962402</ele>
        <time>2017-02-17T13:48:03Z</time>
      </trkpt>
      <trkpt lat="42.94498" lon="0.02813">
        <ele>1846.829834</ele>
        <time>2017-02-17T13:48:09Z</time>
      </trkpt>
      <trkpt lat="42.94525" lon="0.02795">
        <ele>1835.293945</ele>
        <time>2017-02-17T13:48:15Z</time>
      </trkpt>
      <trkpt lat="42.94538" lon="0.02811">
        <ele>1818.470947</ele>
        <time>2017-02-17T13:48:19Z</time>
      </trkpt>
      <trkpt lat="42.94544" lon="0.02807">
        <ele>1810.299805</ele>
        <time>2017-02-17T13:48:22Z</time>
      </trkpt>
      <trkpt lat="42.94582" lon="0.02761">
        <ele>1787.70874</ele>
        <time>2017-02-17T13:48:32Z</time>
      </trkpt>
      <trkpt lat="42.94615" lon="0.02772">
        <ele>1773.289307</ele>
        <time>2017-02-17T13:48:38Z</time>
      </trkpt>
      <trkpt lat="42.94626" lon="0.0277">
        <ele>1762.233887</ele>
        <time>2017-02-17T13:48:42Z</time>
      </trkpt>
      <trkpt lat="42.94634" lon="0.02764">
        <ele>1753.101318</ele>
        <time>2017-02-17T13:48:46Z</time>
      </trkpt>
      <trkpt lat="42.94627" lon="0.02758">
        <ele>1739.162109</ele>
        <time>2017-02-17T13:48:57Z</time>
      </trkpt>
      <trkpt lat="42.9463" lon="0.02757">
        <ele>1737.239502</ele>
        <time>2017-02-17T13:49:03Z</time>
      </trkpt>
      <trkpt lat="42.94634" lon="0.02734">
        <ele>1726.18457</ele>
        <time>2017-02-17T13:49:11Z</time>
      </trkpt>
      <trkpt lat="42.94636" lon="0.02716">
        <ele>1720.416504</ele>
        <time>2017-02-17T13:49:15Z</time>
      </trkpt>
      <trkpt lat="42.94643" lon="0.02682">
        <ele>1707.438721</ele>
        <time>2017-02-17T13:49:23Z</time>
      </trkpt>
      <trkpt lat="42.94649" lon="0.02688">
        <ele>1699.748291</ele>
        <time>2017-02-17T13:49:28Z</time>
      </trkpt>
      <trkpt lat="42.94656" lon="0.02728">
        <ele>1687.250977</ele>
        <time>2017-02-17T13:49:39Z</time>
      </trkpt>
      <trkpt lat="42.94665" lon="0.0272">
        <ele>1676.676758</ele>
        <time>2017-02-17T13:49:44Z</time>
      </trkpt>
      <trkpt lat="42.94667" lon="0.02716">
        <ele>1673.312012</ele>
        <time>2017-02-17T13:49:46Z</time>
      </trkpt>
      <trkpt lat="42.94676" lon="0.027">
        <ele>1663.69873</ele>
        <time>2017-02-17T13:49:51Z</time>
      </trkpt>
      <trkpt lat="42.94682" lon="0.02651">
        <ele>1648.317627</ele>
        <time>2017-02-17T13:50:02Z</time>
      </trkpt>
      <trkpt lat="42.94681" lon="0.02649">
        <ele>1646.395264</ele>
        <time>2017-02-17T13:50:10Z</time>
      </trkpt>
      <trkpt lat="42.94691" lon="0.02641">
        <ele>1643.991699</ele>
        <time>2017-02-17T13:50:14Z</time>
      </trkpt>
      <trkpt lat="42.94701" lon="0.0261">
        <ele>1633.897949</ele>
        <time>2017-02-17T13:50:22Z</time>
      </trkpt>
      <trkpt lat="42.94702" lon="0.02605">
        <ele>1630.052734</ele>
        <time>2017-02-17T13:50:26Z</time>
      </trkpt>
      <trkpt lat="42.94711" lon="0.02594">
        <ele>1624.284668</ele>
        <time>2017-02-17T13:50:36Z</time>
      </trkpt>
      <trkpt lat="42.94721" lon="0.02582">
        <ele>1620.920166</ele>
        <time>2017-02-17T13:50:43Z</time>
      </trkpt>
      <trkpt lat="42.94722" lon="0.02582">
        <ele>1619.95874</ele>
        <time>2017-02-17T13:51:25Z</time>
      </trkpt>
      <trkpt lat="42.9473" lon="0.02575">
        <ele>1618.516846</ele>
        <time>2017-02-17T13:51:30Z</time>
      </trkpt>
      <trkpt lat="42.94737" lon="0.0255">
        <ele>1618.036133</ele>
        <time>2017-02-17T13:51:40Z</time>
      </trkpt>
      <trkpt lat="42.94749" lon="0.02524">
        <ele>1614.671631</ele>
        <time>2017-02-17T13:51:54Z</time>
      </trkpt>
      <trkpt lat="42.94755" lon="0.02507">
        <ele>1612.268311</ele>
        <time>2017-02-17T13:52:04Z</time>
      </trkpt>
      <trkpt lat="42.94757" lon="0.02501">
        <ele>1610.826172</ele>
        <time>2017-02-17T13:52:07Z</time>
      </trkpt>
      <trkpt lat="42.9476" lon="0.02498">
        <ele>1609.864746</ele>
        <time>2017-02-17T13:52:12Z</time>
      </trkpt>
      <trkpt lat="42.94773" lon="0.0248">
        <ele>1609.384277</ele>
        <time>2017-02-17T13:52:21Z</time>
      </trkpt>
      <trkpt lat="42.94785" lon="0.02464">
        <ele>1608.422852</ele>
        <time>2017-02-17T13:52:29Z</time>
      </trkpt>
      <trkpt lat="42.94813" lon="0.02444">
        <ele>1606.019531</ele>
        <time>2017-02-17T13:52:41Z</time>
      </trkpt>
      <trkpt lat="42.94814" lon="0.02444">
        <ele>1604.097168</ele>
        <time>2017-02-17T13:52:54Z</time>
      </trkpt>
      <trkpt lat="42.9484" lon="0.02421">
        <ele>1600.251953</ele>
        <time>2017-02-17T13:53:03Z</time>
      </trkpt>
      <trkpt lat="42.94853" lon="0.02421">
        <ele>1596.887207</ele>
        <time>2017-02-17T13:53:07Z</time>
      </trkpt>
      <trkpt lat="42.94854" lon="0.02416">
        <ele>1594.964355</ele>
        <time>2017-02-17T13:53:09Z</time>
      </trkpt>
      <trkpt lat="42.94889" lon="0.02425">
        <ele>1589.196533</ele>
        <time>2017-02-17T13:53:15Z</time>
      </trkpt>
      <trkpt lat="42.94989" lon="0.02411">
        <ele>1569.970215</ele>
        <time>2017-02-17T13:53:26Z</time>
      </trkpt>
      <trkpt lat="42.95048" lon="0.0238">
        <ele>1559.395752</ele>
        <time>2017-02-17T13:53:34Z</time>
      </trkpt>
      <trkpt lat="42.95069" lon="0.02371">
        <ele>1556.031006</ele>
        <time>2017-02-17T13:53:37Z</time>
      </trkpt>
      <trkpt lat="42.9508" lon="0.02363">
        <ele>1553.147217</ele>
        <time>2017-02-17T13:53:40Z</time>
      </trkpt>
      <trkpt lat="42.95127" lon="0.02349">
        <ele>1556.511719</ele>
        <time>2017-02-17T13:53:52Z</time>
      </trkpt>
      <trkpt lat="42.95142" lon="0.02333">
        <ele>1556.031006</ele>
        <time>2017-02-17T13:54:03Z</time>
      </trkpt>
      <trkpt lat="42.95147" lon="0.02322">
        <ele>1553.147217</ele>
        <time>2017-02-17T13:54:17Z</time>
      </trkpt>
      <trkpt lat="42.95156" lon="0.02318">
        <ele>1554.108643</ele>
        <time>2017-02-17T13:54:31Z</time>
      </trkpt>
      <trkpt lat="42.95157" lon="0.02317">
        <ele>1555.069824</ele>
        <time>2017-02-17T13:54:51Z</time>
      </trkpt>
      <trkpt lat="42.95157" lon="0.0232">
        <ele>1555.069824</ele>
        <time>2017-02-17T13:57:07Z</time>
      </trkpt>
      <trkpt lat="42.95159" lon="0.02321">
        <ele>1554.108643</ele>
        <time>2017-02-17T13:58:11Z</time>
      </trkpt>
      <trkpt lat="42.95158" lon="0.02324">
        <ele>1554.589111</ele>
        <time>2017-02-17T14:07:47Z</time>
      </trkpt>
      <trkpt lat="42.95157" lon="0.02325">
        <ele>1555.069824</ele>
        <time>2017-02-17T14:08:20Z</time>
      </trkpt>
      <trkpt lat="42.95157" lon="0.02324">
        <ele>1555.069824</ele>
        <time>2017-02-17T14:09:17Z</time>
      </trkpt>
      <trkpt lat="42.95169" lon="0.02322">
        <ele>1555.550537</ele>
        <time>2017-02-17T14:09:34Z</time>
      </trkpt>
      <trkpt lat="42.9519" lon="0.02306">
        <ele>1557.473145</ele>
        <time>2017-02-17T14:10:02Z</time>
      </trkpt>
      <trkpt lat="42.9521" lon="0.02289">
        <ele>1562.760254</ele>
        <time>2017-02-17T14:10:40Z</time>
      </trkpt>
      <trkpt lat="42.95237" lon="0.02295">
        <ele>1563.721436</ele>
        <time>2017-02-17T14:11:15Z</time>
      </trkpt>
      <trkpt lat="42.95261" lon="0.02289">
        <ele>1564.202393</ele>
        <time>2017-02-17T14:11:46Z</time>
      </trkpt>
      <trkpt lat="42.95287" lon="0.02282">
        <ele>1567.086426</ele>
        <time>2017-02-17T14:12:21Z</time>
      </trkpt>
      <trkpt lat="42.95319" lon="0.02287">
        <ele>1569.970215</ele>
        <time>2017-02-17T14:13:05Z</time>
      </trkpt>
      <trkpt lat="42.95322" lon="0.02289">
        <ele>1569.970215</ele>
        <time>2017-02-17T14:13:09Z</time>
      </trkpt>
      <trkpt lat="42.95342" lon="0.02304">
        <ele>1569.489746</ele>
        <time>2017-02-17T14:13:33Z</time>
      </trkpt>
      <trkpt lat="42.95362" lon="0.02326">
        <ele>1571.892822</ele>
        <time>2017-02-17T14:14:09Z</time>
      </trkpt>
      <trkpt lat="42.95372" lon="0.02365">
        <ele>1573.81543</ele>
        <time>2017-02-17T14:14:49Z</time>
      </trkpt>
      <trkpt lat="42.95373" lon="0.02375">
        <ele>1573.81543</ele>
        <time>2017-02-17T14:14:58Z</time>
      </trkpt>
      <trkpt lat="42.95387" lon="0.02391">
        <ele>1575.738037</ele>
        <time>2017-02-17T14:15:21Z</time>
      </trkpt>
      <trkpt lat="42.95412" lon="0.0239">
        <ele>1579.583252</ele>
        <time>2017-02-17T14:15:59Z</time>
      </trkpt>
      <trkpt lat="42.95419" lon="0.02403">
        <ele>1581.025635</ele>
        <time>2017-02-17T14:16:14Z</time>
      </trkpt>
      <trkpt lat="42.95423" lon="0.02403">
        <ele>1579.583252</ele>
        <time>2017-02-17T14:16:24Z</time>
      </trkpt>
      <trkpt lat="42.95429" lon="0.02392">
        <ele>1581.506104</ele>
        <time>2017-02-17T14:16:40Z</time>
      </trkpt>
      <trkpt lat="42.95451" lon="0.02377">
        <ele>1585.832031</ele>
        <time>2017-02-17T14:17:10Z</time>
      </trkpt>
      <trkpt lat="42.95471" lon="0.02364">
        <ele>1587.754639</ele>
        <time>2017-02-17T14:17:39Z</time>
      </trkpt>
      <trkpt lat="42.9549" lon="0.02352">
        <ele>1590.157959</ele>
        <time>2017-02-17T14:18:10Z</time>
      </trkpt>
      <trkpt lat="42.95511" lon="0.02339">
        <ele>1593.041748</ele>
        <time>2017-02-17T14:18:43Z</time>
      </trkpt>
      <trkpt lat="42.95535" lon="0.02329">
        <ele>1595.445068</ele>
        <time>2017-02-17T14:19:15Z</time>
      </trkpt>
      <trkpt lat="42.95555" lon="0.0232">
        <ele>1596.406738</ele>
        <time>2017-02-17T14:19:49Z</time>
      </trkpt>
      <trkpt lat="42.95577" lon="0.02329">
        <ele>1598.809814</ele>
        <time>2017-02-17T14:20:20Z</time>
      </trkpt>
      <trkpt lat="42.956" lon="0.02351">
        <ele>1599.77124</ele>
        <time>2017-02-17T14:20:59Z</time>
      </trkpt>
      <trkpt lat="42.95618" lon="0.02366">
        <ele>1602.655029</ele>
        <time>2017-02-17T14:21:32Z</time>
      </trkpt>
      <trkpt lat="42.95638" lon="0.02371">
        <ele>1606.980957</ele>
        <time>2017-02-17T14:22:04Z</time>
      </trkpt>
      <trkpt lat="42.95663" lon="0.02383">
        <ele>1609.864746</ele>
        <time>2017-02-17T14:22:42Z</time>
      </trkpt>
      <trkpt lat="42.95694" lon="0.02382">
        <ele>1611.306885</ele>
        <time>2017-02-17T14:23:27Z</time>
      </trkpt>
      <trkpt lat="42.95724" lon="0.02375">
        <ele>1614.190918</ele>
        <time>2017-02-17T14:24:05Z</time>
      </trkpt>
      <trkpt lat="42.95745" lon="0.02387">
        <ele>1613.229736</ele>
        <time>2017-02-17T14:24:34Z</time>
      </trkpt>
      <trkpt lat="42.95774" lon="0.02382">
        <ele>1612.749023</ele>
        <time>2017-02-17T14:25:08Z</time>
      </trkpt>
      <trkpt lat="42.95779" lon="0.0238">
        <ele>1613.710205</ele>
        <time>2017-02-17T14:25:14Z</time>
      </trkpt>
      <trkpt lat="42.95795" lon="0.0237">
        <ele>1614.190918</ele>
        <time>2017-02-17T14:25:32Z</time>
      </trkpt>
      <trkpt lat="42.95816" lon="0.02341">
        <ele>1615.152344</ele>
        <time>2017-02-17T14:26:01Z</time>
      </trkpt>
      <trkpt lat="42.95839" lon="0.02317">
        <ele>1617.55542</ele>
        <time>2017-02-17T14:26:40Z</time>
      </trkpt>
      <trkpt lat="42.95865" lon="0.02304">
        <ele>1618.997559</ele>
        <time>2017-02-17T14:27:10Z</time>
      </trkpt>
      <trkpt lat="42.95886" lon="0.02292">
        <ele>1619.478271</ele>
        <time>2017-02-17T14:27:44Z</time>
      </trkpt>
      <trkpt lat="42.9591" lon="0.02281">
        <ele>1620.439453</ele>
        <time>2017-02-17T14:28:15Z</time>
      </trkpt>
      <trkpt lat="42.95916" lon="0.02278">
        <ele>1618.997559</ele>
        <time>2017-02-17T14:28:23Z</time>
      </trkpt>
      <trkpt lat="42.95941" lon="0.02265">
        <ele>1619.95874</ele>
        <time>2017-02-17T14:28:54Z</time>
      </trkpt>
      <trkpt lat="42.95955" lon="0.02256">
        <ele>1620.439453</ele>
        <time>2017-02-17T14:29:17Z</time>
      </trkpt>
      <trkpt lat="42.95979" lon="0.02237">
        <ele>1621.881348</ele>
        <time>2017-02-17T14:29:50Z</time>
      </trkpt>
      <trkpt lat="42.96003" lon="0.02222">
        <ele>1622.842773</ele>
        <time>2017-02-17T14:30:17Z</time>
      </trkpt>
      <trkpt lat="42.96025" lon="0.02201">
        <ele>1626.687988</ele>
        <time>2017-02-17T14:30:49Z</time>
      </trkpt>
      <trkpt lat="42.96048" lon="0.02169">
        <ele>1630.533447</ele>
        <time>2017-02-17T14:31:31Z</time>
      </trkpt>
      <trkpt lat="42.96069" lon="0.02146">
        <ele>1631.975342</ele>
        <time>2017-02-17T14:32:02Z</time>
      </trkpt>
      <trkpt lat="42.96085" lon="0.02128">
        <ele>1630.533447</ele>
        <time>2017-02-17T14:32:30Z</time>
      </trkpt>
      <trkpt lat="42.96103" lon="0.02106">
        <ele>1632.456055</ele>
        <time>2017-02-17T14:32:59Z</time>
      </trkpt>
      <trkpt lat="42.96124" lon="0.0208">
        <ele>1635.820557</ele>
        <time>2017-02-17T14:33:32Z</time>
      </trkpt>
      <trkpt lat="42.96143" lon="0.02053">
        <ele>1635.820557</ele>
        <time>2017-02-17T14:34:02Z</time>
      </trkpt>
      <trkpt lat="42.96158" lon="0.02021">
        <ele>1640.146484</ele>
        <time>2017-02-17T14:34:41Z</time>
      </trkpt>
      <trkpt lat="42.96166" lon="0.01997">
        <ele>1643.510986</ele>
        <time>2017-02-17T14:35:06Z</time>
      </trkpt>
      <trkpt lat="42.96173" lon="0.01961">
        <ele>1641.107666</ele>
        <time>2017-02-17T14:35:39Z</time>
      </trkpt>
      <trkpt lat="42.96178" lon="0.01939">
        <ele>1640.146484</ele>
        <time>2017-02-17T14:36:02Z</time>
      </trkpt>
      <trkpt lat="42.96192" lon="0.01919">
        <ele>1640.626953</ele>
        <time>2017-02-17T14:36:24Z</time>
      </trkpt>
      <trkpt lat="42.96206" lon="0.01895">
        <ele>1641.107666</ele>
        <time>2017-02-17T14:36:53Z</time>
      </trkpt>
      <trkpt lat="42.96226" lon="0.01865">
        <ele>1640.626953</ele>
        <time>2017-02-17T14:37:22Z</time>
      </trkpt>
      <trkpt lat="42.96241" lon="0.01837">
        <ele>1642.549805</ele>
        <time>2017-02-17T14:37:52Z</time>
      </trkpt>
      <trkpt lat="42.96252" lon="0.01816">
        <ele>1646.875732</ele>
        <time>2017-02-17T14:38:19Z</time>
      </trkpt>
      <trkpt lat="42.96257" lon="0.01805">
        <ele>1649.279053</ele>
        <time>2017-02-17T14:38:35Z</time>
      </trkpt>
      <trkpt lat="42.96268" lon="0.01785">
        <ele>1650.720947</ele>
        <time>2017-02-17T14:39:01Z</time>
      </trkpt>
      <trkpt lat="42.96285" lon="0.01761">
        <ele>1649.279053</ele>
        <time>2017-02-17T14:39:28Z</time>
      </trkpt>
      <trkpt lat="42.96306" lon="0.01739">
        <ele>1649.759766</ele>
        <time>2017-02-17T14:39:59Z</time>
      </trkpt>
      <trkpt lat="42.96328" lon="0.01717">
        <ele>1649.759766</ele>
        <time>2017-02-17T14:40:34Z</time>
      </trkpt>
      <trkpt lat="42.96347" lon="0.01694">
        <ele>1651.682373</ele>
        <time>2017-02-17T14:41:08Z</time>
      </trkpt>
      <trkpt lat="42.96368" lon="0.01668">
        <ele>1653.124268</ele>
        <time>2017-02-17T14:41:45Z</time>
      </trkpt>
      <trkpt lat="42.96381" lon="0.01647">
        <ele>1656.48877</ele>
        <time>2017-02-17T14:42:14Z</time>
      </trkpt>
      <trkpt lat="42.96398" lon="0.01615">
        <ele>1656.969482</ele>
        <time>2017-02-17T14:42:46Z</time>
      </trkpt>
      <trkpt lat="42.96415" lon="0.01585">
        <ele>1656.48877</ele>
        <time>2017-02-17T14:43:16Z</time>
      </trkpt>
      <trkpt lat="42.96431" lon="0.01557">
        <ele>1656.48877</ele>
        <time>2017-02-17T14:43:46Z</time>
      </trkpt>
      <trkpt lat="42.96446" lon="0.01528">
        <ele>1656.969482</ele>
        <time>2017-02-17T14:44:13Z</time>
      </trkpt>
      <trkpt lat="42.96456" lon="0.01501">
        <ele>1659.372803</ele>
        <time>2017-02-17T14:44:40Z</time>
      </trkpt>
      <trkpt lat="42.96474" lon="0.01469">
        <ele>1661.776367</ele>
        <time>2017-02-17T14:45:16Z</time>
      </trkpt>
      <trkpt lat="42.96492" lon="0.01454">
        <ele>1660.814941</ele>
        <time>2017-02-17T14:45:39Z</time>
      </trkpt>
      <trkpt lat="42.96513" lon="0.01438">
        <ele>1660.334229</ele>
        <time>2017-02-17T14:46:05Z</time>
      </trkpt>
      <trkpt lat="42.96533" lon="0.01423">
        <ele>1658.89209</ele>
        <time>2017-02-17T14:46:28Z</time>
      </trkpt>
      <trkpt lat="42.96558" lon="0.01394">
        <ele>1653.60498</ele>
        <time>2017-02-17T14:46:48Z</time>
      </trkpt>
      <trkpt lat="42.96568" lon="0.01381">
        <ele>1656.008057</ele>
        <time>2017-02-17T14:47:08Z</time>
      </trkpt>
      <trkpt lat="42.96577" lon="0.01364">
        <ele>1658.89209</ele>
        <time>2017-02-17T14:47:32Z</time>
      </trkpt>
      <trkpt lat="42.96585" lon="0.01349">
        <ele>1662.256836</ele>
        <time>2017-02-17T14:47:56Z</time>
      </trkpt>
      <trkpt lat="42.96593" lon="0.01334">
        <ele>1663.218262</ele>
        <time>2017-02-17T14:48:16Z</time>
      </trkpt>
      <trkpt lat="42.96611" lon="0.01309">
        <ele>1665.621582</ele>
        <time>2017-02-17T14:48:48Z</time>
      </trkpt>
      <trkpt lat="42.96631" lon="0.01283">
        <ele>1666.582764</ele>
        <time>2017-02-17T14:49:21Z</time>
      </trkpt>
      <trkpt lat="42.96649" lon="0.01254">
        <ele>1668.986084</ele>
        <time>2017-02-17T14:49:56Z</time>
      </trkpt>
      <trkpt lat="42.96662" lon="0.01229">
        <ele>1673.79248</ele>
        <time>2017-02-17T14:50:32Z</time>
      </trkpt>
      <trkpt lat="42.96676" lon="0.01204">
        <ele>1679.079834</ele>
        <time>2017-02-17T14:51:07Z</time>
      </trkpt>
      <trkpt lat="42.96684" lon="0.01179">
        <ele>1684.8479</ele>
        <time>2017-02-17T14:51:37Z</time>
      </trkpt>
      <trkpt lat="42.96683" lon="0.01152">
        <ele>1688.693115</ele>
        <time>2017-02-17T14:52:07Z</time>
      </trkpt>
      <trkpt lat="42.96683" lon="0.01129">
        <ele>1692.057861</ele>
        <time>2017-02-17T14:52:33Z</time>
      </trkpt>
      <trkpt lat="42.96684" lon="0.01113">
        <ele>1691.096191</ele>
        <time>2017-02-17T14:52:44Z</time>
      </trkpt>
      <trkpt lat="42.9669" lon="0.01078">
        <ele>1683.886475</ele>
        <time>2017-02-17T14:53:09Z</time>
      </trkpt>
      <trkpt lat="42.96705" lon="0.01054">
        <ele>1685.328369</ele>
        <time>2017-02-17T14:53:38Z</time>
      </trkpt>
      <trkpt lat="42.96715" lon="0.01031">
        <ele>1688.693115</ele>
        <time>2017-02-17T14:54:07Z</time>
      </trkpt>
      <trkpt lat="42.9673" lon="0.01004">
        <ele>1689.654297</ele>
        <time>2017-02-17T14:54:34Z</time>
      </trkpt>
      <trkpt lat="42.96743" lon="0.00975">
        <ele>1692.538574</ele>
        <time>2017-02-17T14:55:01Z</time>
      </trkpt>
      <trkpt lat="42.96761" lon="0.00931">
        <ele>1688.212402</ele>
        <time>2017-02-17T14:55:30Z</time>
      </trkpt>
      <trkpt lat="42.96778" lon="0.00885">
        <ele>1685.328369</ele>
        <time>2017-02-17T14:55:54Z</time>
      </trkpt>
      <trkpt lat="42.96791" lon="0.00847">
        <ele>1684.8479</ele>
        <time>2017-02-17T14:56:19Z</time>
      </trkpt>
      <trkpt lat="42.96801" lon="0.00812">
        <ele>1681.483154</ele>
        <time>2017-02-17T14:56:38Z</time>
      </trkpt>
      <trkpt lat="42.96815" lon="0.00794">
        <ele>1682.44458</ele>
        <time>2017-02-17T14:57:01Z</time>
      </trkpt>
      <trkpt lat="42.96834" lon="0.00799">
        <ele>1681.483154</ele>
        <time>2017-02-17T14:57:27Z</time>
      </trkpt>
      <trkpt lat="42.96842" lon="0.00776">
        <ele>1677.637939</ele>
        <time>2017-02-17T14:57:41Z</time>
      </trkpt>
      <trkpt lat="42.96845" lon="0.00773">
        <ele>1676.196045</ele>
        <time>2017-02-17T14:57:53Z</time>
      </trkpt>
      <trkpt lat="42.96847" lon="0.00773">
        <ele>1675.234375</ele>
        <time>2017-02-17T14:58:14Z</time>
      </trkpt>
      <trkpt lat="42.96847" lon="0.00773">
        <ele>1675.715088</ele>
        <time>2017-02-17T14:58:36Z</time>
      </trkpt>
      <trkpt lat="42.96848" lon="0.00772">
        <ele>1674.753906</ele>
        <time>2017-02-17T14:58:41Z</time>
      </trkpt>
      <trkpt lat="42.96849" lon="0.00746">
        <ele>1671.869873</ele>
        <time>2017-02-17T14:58:53Z</time>
      </trkpt>
      <trkpt lat="42.96846" lon="0.00716">
        <ele>1674.273193</ele>
        <time>2017-02-17T14:59:19Z</time>
      </trkpt>
      <trkpt lat="42.96844" lon="0.00681">
        <ele>1676.196045</ele>
        <time>2017-02-17T14:59:50Z</time>
      </trkpt>
      <trkpt lat="42.96847" lon="0.00652">
        <ele>1677.637939</ele>
        <time>2017-02-17T15:00:19Z</time>
      </trkpt>
      <trkpt lat="42.96849" lon="0.00637">
        <ele>1678.599365</ele>
        <time>2017-02-17T15:00:36Z</time>
      </trkpt>
      <trkpt lat="42.96852" lon="0.00596">
        <ele>1680.521973</ele>
        <time>2017-02-17T15:01:11Z</time>
      </trkpt>
      <trkpt lat="42.96858" lon="0.00566">
        <ele>1681.002686</ele>
        <time>2017-02-17T15:01:37Z</time>
      </trkpt>
      <trkpt lat="42.96866" lon="0.00539">
        <ele>1681.963867</ele>
        <time>2017-02-17T15:02:02Z</time>
      </trkpt>
      <trkpt lat="42.96878" lon="0.00511">
        <ele>1683.405762</ele>
        <time>2017-02-17T15:02:28Z</time>
      </trkpt>
      <trkpt lat="42.96884" lon="0.00475">
        <ele>1683.405762</ele>
        <time>2017-02-17T15:02:57Z</time>
      </trkpt>
      <trkpt lat="42.96889" lon="0.00441">
        <ele>1683.405762</ele>
        <time>2017-02-17T15:03:21Z</time>
      </trkpt>
      <trkpt lat="42.96888" lon="0.004">
        <ele>1683.405762</ele>
        <time>2017-02-17T15:03:50Z</time>
      </trkpt>
      <trkpt lat="42.96893" lon="0.00363">
        <ele>1681.483154</ele>
        <time>2017-02-17T15:04:16Z</time>
      </trkpt>
      <trkpt lat="42.969" lon="0.00328">
        <ele>1679.560547</ele>
        <time>2017-02-17T15:04:42Z</time>
      </trkpt>
      <trkpt lat="42.96898" lon="0.00295">
        <ele>1679.560547</ele>
        <time>2017-02-17T15:05:03Z</time>
      </trkpt>
      <trkpt lat="42.96888" lon="0.00276">
        <ele>1681.002686</ele>
        <time>2017-02-17T15:05:25Z</time>
      </trkpt>
      <trkpt lat="42.9689" lon="0.00263">
        <ele>1681.002686</ele>
        <time>2017-02-17T15:05:37Z</time>
      </trkpt>
      <trkpt lat="42.96891" lon="0.00232">
        <ele>1682.44458</ele>
        <time>2017-02-17T15:06:04Z</time>
      </trkpt>
      <trkpt lat="42.96889" lon="0.00205">
        <ele>1680.521973</ele>
        <time>2017-02-17T15:06:25Z</time>
      </trkpt>
      <trkpt lat="42.96891" lon="0.00181">
        <ele>1680.04126</ele>
        <time>2017-02-17T15:06:46Z</time>
      </trkpt>
      <trkpt lat="42.96892" lon="0.00172">
        <ele>1680.04126</ele>
        <time>2017-02-17T15:06:57Z</time>
      </trkpt>
      <trkpt lat="42.96914" lon="0.00166">
        <ele>1680.04126</ele>
        <time>2017-02-17T15:07:21Z</time>
      </trkpt>
      <trkpt lat="42.96921" lon="0.0015">
        <ele>1682.44458</ele>
        <time>2017-02-17T15:07:39Z</time>
      </trkpt>
      <trkpt lat="42.96925" lon="0.00138">
        <ele>1683.886475</ele>
        <time>2017-02-17T15:07:56Z</time>
      </trkpt>
      <trkpt lat="42.96924" lon="0.00127">
        <ele>1683.405762</ele>
        <time>2017-02-17T15:08:09Z</time>
      </trkpt>
      <trkpt lat="42.96919" lon="0.00099">
        <ele>1683.886475</ele>
        <time>2017-02-17T15:08:31Z</time>
      </trkpt>
      <trkpt lat="42.96913" lon="0.00069">
        <ele>1683.886475</ele>
        <time>2017-02-17T15:08:55Z</time>
      </trkpt>
      <trkpt lat="42.96908" lon="0.00042">
        <ele>1684.8479</ele>
        <time>2017-02-17T15:09:18Z</time>
      </trkpt>
      <trkpt lat="42.96902" lon="0.0001">
        <ele>1682.44458</ele>
        <time>2017-02-17T15:09:40Z</time>
      </trkpt>
      <trkpt lat="42.96901" lon="-0.00016">
        <ele>1682.44458</ele>
        <time>2017-02-17T15:10:02Z</time>
      </trkpt>
      <trkpt lat="42.96901" lon="-0.00025">
        <ele>1682.44458</ele>
        <time>2017-02-17T15:10:19Z</time>
      </trkpt>
      <trkpt lat="42.96901" lon="-0.00024">
        <ele>1682.44458</ele>
        <time>2017-02-17T15:10:49Z</time>
      </trkpt>
      <trkpt lat="42.96899" lon="-0.00023">
        <ele>1682.925049</ele>
        <time>2017-02-17T15:11:19Z</time>
      </trkpt>
      <trkpt lat="42.96899" lon="-0.00022">
        <ele>1683.405762</ele>
        <time>2017-02-17T15:11:39Z</time>
      </trkpt>
      <trkpt lat="42.96899" lon="-0.00022">
        <ele>1682.44458</ele>
        <time>2017-02-17T15:12:18Z</time>
      </trkpt>
      <trkpt lat="42.96898" lon="-0.00022">
        <ele>1681.483154</ele>
        <time>2017-02-17T15:13:07Z</time>
      </trkpt>
      <trkpt lat="42.96899" lon="-0.00022">
        <ele>1681.963867</ele>
        <time>2017-02-17T15:14:28Z</time>
      </trkpt>
      <trkpt lat="42.96899" lon="-0.00023">
        <ele>1681.963867</ele>
        <time>2017-02-17T15:14:33Z</time>
      </trkpt>
      <trkpt lat="42.96899" lon="-0.00032">
        <ele>1681.002686</ele>
        <time>2017-02-17T15:14:36Z</time>
      </trkpt>
      <trkpt lat="42.96903" lon="-0.00039">
        <ele>1679.560547</ele>
        <time>2017-02-17T15:14:39Z</time>
      </trkpt>
      <trkpt lat="42.96904" lon="-0.00045">
        <ele>1679.079834</ele>
        <time>2017-02-17T15:14:48Z</time>
      </trkpt>
      <trkpt lat="42.96903" lon="-0.00045">
        <ele>1679.079834</ele>
        <time>2017-02-17T15:15:03Z</time>
      </trkpt>
      <trkpt lat="42.96903" lon="-0.00045">
        <ele>1679.079834</ele>
        <time>2017-02-17T15:15:52Z</time>
      </trkpt>
      <trkpt lat="42.96903" lon="-0.00046">
        <ele>1678.599365</ele>
        <time>2017-02-17T15:16:56Z</time>
      </trkpt>
      <trkpt lat="42.96903" lon="-0.00045">
        <ele>1679.079834</ele>
        <time>2017-02-17T15:17:50Z</time>
      </trkpt>
      <trkpt lat="42.96901" lon="-0.00045">
        <ele>1679.079834</ele>
        <time>2017-02-17T15:18:50Z</time>
      </trkpt>
      <trkpt lat="42.96893" lon="-0.00061">
        <ele>1678.599365</ele>
        <time>2017-02-17T15:19:04Z</time>
      </trkpt>
      <trkpt lat="42.96894" lon="-0.00064">
        <ele>1678.599365</ele>
        <time>2017-02-17T15:19:08Z</time>
      </trkpt>
      <trkpt lat="42.96899" lon="-0.0007">
        <ele>1678.118652</ele>
        <time>2017-02-17T15:19:15Z</time>
      </trkpt>
      <trkpt lat="42.96901" lon="-0.00113">
        <ele>1676.676758</ele>
        <time>2017-02-17T15:19:30Z</time>
      </trkpt>
      <trkpt lat="42.96902" lon="-0.0012">
        <ele>1676.196045</ele>
        <time>2017-02-17T15:19:32Z</time>
      </trkpt>
      <trkpt lat="42.96902" lon="-0.00127">
        <ele>1675.715088</ele>
        <time>2017-02-17T15:19:47Z</time>
      </trkpt>
      <trkpt lat="42.96904" lon="-0.00126">
        <ele>1675.715088</ele>
        <time>2017-02-17T15:19:50Z</time>
      </trkpt>
      <trkpt lat="42.96908" lon="-0.00134">
        <ele>1674.273193</ele>
        <time>2017-02-17T15:19:54Z</time>
      </trkpt>
      <trkpt lat="42.96906" lon="-0.00145">
        <ele>1673.79248</ele>
        <time>2017-02-17T15:19:57Z</time>
      </trkpt>
      <trkpt lat="42.96915" lon="-0.00158">
        <ele>1669.947266</ele>
        <time>2017-02-17T15:20:02Z</time>
      </trkpt>
      <trkpt lat="42.96935" lon="-0.00174">
        <ele>1659.372803</ele>
        <time>2017-02-17T15:20:09Z</time>
      </trkpt>
      <trkpt lat="42.96939" lon="-0.00178">
        <ele>1657.450195</ele>
        <time>2017-02-17T15:20:10Z</time>
      </trkpt>
      <trkpt lat="42.96956" lon="-0.00195">
        <ele>1651.682373</ele>
        <time>2017-02-17T15:20:14Z</time>
      </trkpt>
      <trkpt lat="42.96981" lon="-0.00218">
        <ele>1643.030273</ele>
        <time>2017-02-17T15:20:20Z</time>
      </trkpt>
      <trkpt lat="42.97006" lon="-0.00237">
        <ele>1632.936523</ele>
        <time>2017-02-17T15:20:25Z</time>
      </trkpt>
      <trkpt lat="42.97036" lon="-0.00258">
        <ele>1624.765381</ele>
        <time>2017-02-17T15:20:30Z</time>
      </trkpt>
      <trkpt lat="42.97053" lon="-0.00278">
        <ele>1619.95874</ele>
        <time>2017-02-17T15:20:33Z</time>
      </trkpt>
      <trkpt lat="42.97096" lon="-0.00309">
        <ele>1610.345459</ele>
        <time>2017-02-17T15:20:39Z</time>
      </trkpt>
      <trkpt lat="42.97128" lon="-0.00304">
        <ele>1609.864746</ele>
        <time>2017-02-17T15:20:43Z</time>
      </trkpt>
      <trkpt lat="42.9714" lon="-0.00302">
        <ele>1612.749023</ele>
        <time>2017-02-17T15:20:50Z</time>
      </trkpt>
      <trkpt lat="42.97148" lon="-0.00295">
        <ele>1613.229736</ele>
        <time>2017-02-17T15:21:06Z</time>
      </trkpt>
      <trkpt lat="42.97171" lon="-0.00289">
        <ele>1612.268311</ele>
        <time>2017-02-17T15:21:20Z</time>
      </trkpt>
      <trkpt lat="42.97175" lon="-0.0029">
        <ele>1611.787598</ele>
        <time>2017-02-17T15:21:24Z</time>
      </trkpt>
      <trkpt lat="42.97179" lon="-0.00289">
        <ele>1611.306885</ele>
        <time>2017-02-17T15:21:36Z</time>
      </trkpt>
      <trkpt lat="42.97178" lon="-0.0029">
        <ele>1610.826172</ele>
        <time>2017-02-17T15:22:00Z</time>
      </trkpt>
      <trkpt lat="42.97179" lon="-0.00289">
        <ele>1612.268311</ele>
        <time>2017-02-17T15:22:41Z</time>
      </trkpt>
      <trkpt lat="42.97179" lon="-0.0029">
        <ele>1612.749023</ele>
        <time>2017-02-17T15:23:01Z</time>
      </trkpt>
      <trkpt lat="42.97179" lon="-0.00291">
        <ele>1612.749023</ele>
        <time>2017-02-17T15:23:21Z</time>
      </trkpt>
      <trkpt lat="42.97178" lon="-0.00297">
        <ele>1612.749023</ele>
        <time>2017-02-17T15:23:37Z</time>
      </trkpt>
      <trkpt lat="42.97178" lon="-0.00296">
        <ele>1612.268311</ele>
        <time>2017-02-17T15:24:02Z</time>
      </trkpt>
      <trkpt lat="42.97179" lon="-0.00296">
        <ele>1610.345459</ele>
        <time>2017-02-17T15:32:02Z</time>
      </trkpt>
      <trkpt lat="42.97179" lon="-0.00296">
        <ele>1610.345459</ele>
        <time>2017-02-17T15:35:39Z</time>
      </trkpt>
    </trkseg>
  </trk>
</gpx>